FWI11B TFFF-LFPO
Flight info
| Callsign | FWI11B |
|---|---|
| Flight time | N/A |
| Altitude | 39000 |
| Route | SESPO2R SESPO DCT ELJEZ/M084F390 DCT 22N050W 25N045W 29N040W 33N035W 37N030W/M084F410 43N020W DCT PASAS DCT SIVIR/M084F400 UN460 RIVAK/N0473F400 DCT AKEMO DCT TERPO DCT ANG/N0477F410 DCT DEKJA/N0454F280 UN482 NIMER DCT CAD |
| Aircraft | A359/H-SDE2E3GHIJ3J4J5LM1ORWXY/LB1D1 |
Departure
| Time | 2026-04-23 15:48 |
|---|---|
| Airport | Martinique Aimé Césaire International Airport (TFFF) |
Arrival
| Time | N/A |
|---|---|
| Airport | Paris-Orly Airport (LFPO) |
| Time | Latitude | Longitude | Altitude | Speed | Heading |
|---|---|---|---|---|---|
| 2026-04-23 15:15 | 14.59440 | -61.00047 | 25 ft | 0 kts | 20° |
| 2026-04-23 15:34 | 14.59438 | -61.00048 | 23 ft | 1 kts | 21° |
| 2026-04-23 15:34 | 14.59422 | -61.00055 | 26 ft | 3 kts | 34° |
| 2026-04-23 15:34 | 14.59407 | -61.00068 | 28 ft | 3 kts | 49° |
| 2026-04-23 15:34 | 14.59394 | -61.00085 | 29 ft | 3 kts | 45° |
| 2026-04-23 15:35 | 14.59382 | -61.00094 | 30 ft | 1 kts | 20° |
| 2026-04-23 15:35 | 14.59385 | -61.00097 | 29 ft | 3 kts | 331° |
| 2026-04-23 15:35 | 14.59391 | -61.00113 | 29 ft | 3 kts | 284° |
| 2026-04-23 15:35 | 14.59394 | -61.00126 | 27 ft | 1 kts | 292° |
| 2026-04-23 15:36 | 14.59401 | -61.00143 | 29 ft | 0 kts | 112° |
| 2026-04-23 15:38 | 14.59400 | -61.00142 | 24 ft | 1 kts | 113° |
| 2026-04-23 15:38 | 14.59389 | -61.00114 | 27 ft | 7 kts | 114° |
| 2026-04-23 15:39 | 14.59374 | -61.00083 | 27 ft | 1 kts | 116° |
| 2026-04-23 15:39 | 14.59373 | -61.00082 | 27 ft | 0 kts | 116° |
| 2026-04-23 15:40 | 14.59371 | -61.00077 | 27 ft | 0 kts | 116° |
| 2026-04-23 15:43 | 14.59370 | -61.00076 | 26 ft | 0 kts | 116° |
| 2026-04-23 15:43 | 14.59362 | -61.00068 | 29 ft | 6 kts | 136° |
| 2026-04-23 15:43 | 14.59279 | -61.00038 | 28 ft | 18 kts | 171° |
| 2026-04-23 15:43 | 14.59161 | -61.00047 | 26 ft | 17 kts | 225° |
| 2026-04-23 15:44 | 14.59132 | -61.00171 | 24 ft | 19 kts | 260° |
| 2026-04-23 15:44 | 14.59109 | -61.00309 | 22 ft | 20 kts | 260° |
| 2026-04-23 15:44 | 14.59084 | -61.00455 | 23 ft | 21 kts | 259° |
| 2026-04-23 15:44 | 14.59055 | -61.00609 | 25 ft | 22 kts | 259° |
| 2026-04-23 15:45 | 14.59030 | -61.00754 | 27 ft | 20 kts | 260° |
| 2026-04-23 15:45 | 14.59007 | -61.00895 | 28 ft | 21 kts | 260° |
| 2026-04-23 15:45 | 14.58982 | -61.01047 | 29 ft | 22 kts | 260° |
| 2026-04-23 15:45 | 14.58956 | -61.01200 | 31 ft | 21 kts | 260° |
| 2026-04-23 15:46 | 14.58930 | -61.01355 | 30 ft | 23 kts | 260° |
| 2026-04-23 15:46 | 14.58901 | -61.01530 | 28 ft | 28 kts | 260° |
| 2026-04-23 15:46 | 14.58871 | -61.01719 | 26 ft | 17 kts | 271° |
| 2026-04-23 15:46 | 14.58892 | -61.01794 | 24 ft | 3 kts | 251° |
| 2026-04-23 15:47 | 14.58876 | -61.01797 | 25 ft | 2 kts | 169° |
| 2026-04-23 15:47 | 14.58869 | -61.01784 | 25 ft | 4 kts | 120° |
| 2026-04-23 15:47 | 14.58866 | -61.01729 | 25 ft | 11 kts | 84° |
| 2026-04-23 15:47 | 14.58883 | -61.01629 | 29 ft | 19 kts | 79° |
| 2026-04-23 15:48 | 14.58945 | -61.01270 | 31 ft | 84 kts | 80° |
| 2026-04-23 15:48 | 14.59082 | -61.00463 | 21 ft | 143 kts | 80° |
| 2026-04-23 15:48 | 14.59288 | -60.99331 | 333 ft | 166 kts | 79° |
| 2026-04-23 15:48 | 14.59526 | -60.98157 | 973 ft | 169 kts | 77° |
| 2026-04-23 15:49 | 14.59752 | -60.96932 | 1436 ft | 182 kts | 80° |
| 2026-04-23 15:49 | 14.59976 | -60.95584 | 1642 ft | 200 kts | 81° |
| 2026-04-23 15:49 | 14.60214 | -60.94089 | 1785 ft | 222 kts | 81° |
| 2026-04-23 15:49 | 14.60483 | -60.92444 | 1979 ft | 242 kts | 79° |
| 2026-04-23 15:50 | 14.61070 | -60.90778 | 2356 ft | 253 kts | 59° |
| 2026-04-23 15:50 | 14.62261 | -60.89429 | 2978 ft | 258 kts | 40° |
| 2026-04-23 15:50 | 14.63702 | -60.88293 | 3468 ft | 264 kts | 36° |
| 2026-04-23 15:50 | 14.65194 | -60.87171 | 3986 ft | 268 kts | 36° |
| 2026-04-23 15:51 | 14.66713 | -60.86021 | 4498 ft | 272 kts | 36° |
| 2026-04-23 15:51 | 14.68250 | -60.84850 | 5023 ft | 276 kts | 37° |
| 2026-04-23 15:51 | 14.69811 | -60.83656 | 5469 ft | 283 kts | 37° |
| 2026-04-23 15:51 | 14.71396 | -60.82438 | 6023 ft | 284 kts | 36° |
| 2026-04-23 15:52 | 14.72985 | -60.81215 | 6555 ft | 286 kts | 37° |
| 2026-04-23 15:52 | 14.74583 | -60.79984 | 7054 ft | 289 kts | 36° |
| 2026-04-23 15:52 | 14.76174 | -60.78757 | 7572 ft | 290 kts | 37° |
| 2026-04-23 15:52 | 14.77801 | -60.77503 | 8092 ft | 292 kts | 36° |
| 2026-04-23 15:53 | 14.79463 | -60.76221 | 8606 ft | 294 kts | 36° |
| 2026-04-23 15:53 | 14.81112 | -60.74950 | 9130 ft | 297 kts | 36° |
| 2026-04-23 15:53 | 14.82752 | -60.73684 | 9578 ft | 301 kts | 36° |
| 2026-04-23 15:53 | 14.84436 | -60.72384 | 10083 ft | 304 kts | 36° |
| 2026-04-23 15:54 | 14.86160 | -60.71054 | 10350 ft | 314 kts | 36° |
| 2026-04-23 15:54 | 14.87944 | -60.69677 | 10573 ft | 326 kts | 36° |
| 2026-04-23 15:54 | 14.89789 | -60.68253 | 10797 ft | 337 kts | 36° |
| 2026-04-23 15:54 | 14.91701 | -60.66777 | 10992 ft | 348 kts | 36° |
| 2026-04-23 15:55 | 14.93670 | -60.65256 | 11220 ft | 358 kts | 36° |
| 2026-04-23 15:55 | 14.95685 | -60.63699 | 11441 ft | 366 kts | 36° |
| 2026-04-23 15:55 | 14.97741 | -60.62109 | 11762 ft | 371 kts | 36° |
| 2026-04-23 15:55 | 14.99823 | -60.60500 | 12139 ft | 374 kts | 36° |
| 2026-04-23 15:56 | 15.01916 | -60.58881 | 12507 ft | 377 kts | 36° |
| 2026-04-23 15:56 | 15.04019 | -60.57254 | 12885 ft | 379 kts | 36° |
| 2026-04-23 15:56 | 15.06134 | -60.55618 | 13270 ft | 381 kts | 36° |
| 2026-04-23 15:56 | 15.08271 | -60.53964 | 13648 ft | 383 kts | 36° |
| 2026-04-23 15:57 | 15.10411 | -60.52307 | 13990 ft | 385 kts | 36° |
| 2026-04-23 15:57 | 15.12558 | -60.50645 | 14296 ft | 388 kts | 36° |
| 2026-04-23 15:57 | 15.14730 | -60.48963 | 14602 ft | 391 kts | 36° |
| 2026-04-23 15:57 | 15.16914 | -60.47271 | 14912 ft | 393 kts | 36° |
| 2026-04-23 15:58 | 15.19104 | -60.45574 | 15209 ft | 396 kts | 36° |
| 2026-04-23 15:58 | 15.21315 | -60.43860 | 15515 ft | 398 kts | 36° |
| 2026-04-23 15:58 | 15.23544 | -60.42132 | 15828 ft | 400 kts | 36° |
| 2026-04-23 15:58 | 15.25780 | -60.40398 | 16125 ft | 403 kts | 36° |
| 2026-04-23 15:59 | 15.28032 | -60.38651 | 16424 ft | 406 kts | 36° |
| 2026-04-23 15:59 | 15.30298 | -60.36893 | 16736 ft | 408 kts | 36° |
| 2026-04-23 15:59 | 15.32576 | -60.35125 | 17037 ft | 411 kts | 36° |
| 2026-04-23 15:59 | 15.34841 | -60.33366 | 17344 ft | 413 kts | 36° |
| 2026-04-23 16:00 | 15.37176 | -60.31553 | 17641 ft | 416 kts | 36° |
| 2026-04-23 16:00 | 15.39470 | -60.29771 | 17928 ft | 418 kts | 36° |
| 2026-04-23 16:00 | 15.41804 | -60.27958 | 18221 ft | 420 kts | 36° |
| 2026-04-23 16:00 | 15.44142 | -60.26140 | 18482 ft | 423 kts | 36° |
| 2026-04-23 16:01 | 15.46534 | -60.24280 | 18758 ft | 424 kts | 36° |
| 2026-04-23 16:01 | 15.48865 | -60.22467 | 19030 ft | 425 kts | 35° |
| 2026-04-23 16:01 | 15.51235 | -60.20624 | 19290 ft | 427 kts | 35° |
| 2026-04-23 16:01 | 15.53624 | -60.18765 | 19553 ft | 429 kts | 35° |
| 2026-04-23 16:02 | 15.56013 | -60.16905 | 19820 ft | 431 kts | 35° |
| 2026-04-23 16:02 | 15.58412 | -60.15037 | 20032 ft | 433 kts | 35° |
| 2026-04-23 16:02 | 15.60831 | -60.13153 | 20309 ft | 435 kts | 35° |
| 2026-04-23 16:02 | 15.63244 | -60.11254 | 20567 ft | 436 kts | 36° |
| 2026-04-23 16:03 | 15.65500 | -60.09136 | 20811 ft | 440 kts | 45° |
| 2026-04-23 16:03 | 15.67540 | -60.06758 | 21052 ft | 442 kts | 48° |
| 2026-04-23 16:03 | 15.69495 | -60.04290 | 21301 ft | 444 kts | 50° |
| 2026-04-23 16:03 | 15.71416 | -60.01774 | 21531 ft | 446 kts | 50° |
| 2026-04-23 16:04 | 15.73330 | -59.99241 | 21770 ft | 447 kts | 50° |
| 2026-04-23 16:04 | 15.75261 | -59.96694 | 22003 ft | 449 kts | 50° |
| 2026-04-23 16:04 | 15.77202 | -59.94151 | 22232 ft | 451 kts | 50° |
| 2026-04-23 16:04 | 15.79156 | -59.91605 | 22456 ft | 452 kts | 50° |
| 2026-04-23 16:05 | 15.80462 | -59.89911 | 22616 ft | 453 kts | 49° |
| 2026-04-23 16:05 | 15.83101 | -59.86495 | 22903 ft | 455 kts | 49° |
| 2026-04-23 16:05 | 15.85091 | -59.83920 | 23102 ft | 457 kts | 49° |
| 2026-04-23 16:05 | 15.87058 | -59.81376 | 23329 ft | 458 kts | 49° |
| 2026-04-23 16:06 | 15.89083 | -59.78755 | 23542 ft | 460 kts | 49° |
| 2026-04-23 16:06 | 15.91086 | -59.76160 | 23713 ft | 461 kts | 49° |
| 2026-04-23 16:06 | 15.93096 | -59.73554 | 23903 ft | 463 kts | 49° |
| 2026-04-23 16:06 | 15.95109 | -59.70943 | 24062 ft | 464 kts | 49° |
| 2026-04-23 16:07 | 15.97102 | -59.68357 | 24238 ft | 466 kts | 49° |
| 2026-04-23 16:07 | 15.99133 | -59.65721 | 24396 ft | 467 kts | 49° |
| 2026-04-23 16:07 | 16.01162 | -59.63087 | 24590 ft | 468 kts | 49° |
| 2026-04-23 16:07 | 16.03204 | -59.60436 | 24755 ft | 469 kts | 49° |
| 2026-04-23 16:08 | 16.05244 | -59.57784 | 24912 ft | 471 kts | 49° |
| 2026-04-23 16:08 | 16.07296 | -59.55117 | 25060 ft | 473 kts | 49° |
| 2026-04-23 16:08 | 16.09350 | -59.52447 | 25233 ft | 474 kts | 49° |
| 2026-04-23 16:08 | 16.11416 | -59.49759 | 25397 ft | 475 kts | 49° |
| 2026-04-23 16:09 | 16.13485 | -59.47068 | 25559 ft | 477 kts | 49° |
| 2026-04-23 16:09 | 16.15550 | -59.44380 | 25726 ft | 478 kts | 49° |
| 2026-04-23 16:09 | 16.17632 | -59.41669 | 25892 ft | 479 kts | 49° |
| 2026-04-23 16:09 | 16.19719 | -59.38951 | 26060 ft | 481 kts | 49° |
| 2026-04-23 16:10 | 16.21804 | -59.36234 | 26224 ft | 482 kts | 49° |
| 2026-04-23 16:10 | 16.23899 | -59.33503 | 26388 ft | 483 kts | 49° |
| 2026-04-23 16:10 | 16.25996 | -59.30769 | 26553 ft | 484 kts | 49° |
| 2026-04-23 16:10 | 16.28099 | -59.28025 | 26747 ft | 485 kts | 49° |
| 2026-04-23 16:11 | 16.30208 | -59.25272 | 26890 ft | 487 kts | 49° |
| 2026-04-23 16:11 | 16.32329 | -59.22504 | 26981 ft | 490 kts | 49° |
| 2026-04-23 16:11 | 16.34457 | -59.19725 | 27162 ft | 491 kts | 49° |
| 2026-04-23 16:11 | 16.36583 | -59.16946 | 27326 ft | 493 kts | 49° |
| 2026-04-23 16:12 | 16.38728 | -59.14143 | 27503 ft | 494 kts | 49° |
| 2026-04-23 16:12 | 16.40866 | -59.11346 | 27661 ft | 495 kts | 49° |
| 2026-04-23 16:12 | 16.43016 | -59.08534 | 27839 ft | 497 kts | 49° |
| 2026-04-23 16:12 | 16.45166 | -59.05720 | 27998 ft | 498 kts | 49° |
| 2026-04-23 16:13 | 16.47305 | -59.02920 | 28184 ft | 499 kts | 49° |
| 2026-04-23 16:13 | 16.51631 | -58.97254 | 28557 ft | 501 kts | 49° |
| 2026-04-23 16:13 | 16.53803 | -58.94406 | 28709 ft | 502 kts | 49° |
| 2026-04-23 16:14 | 16.55979 | -58.91553 | 28810 ft | 506 kts | 49° |
| 2026-04-23 16:14 | 16.58173 | -58.88676 | 28942 ft | 508 kts | 49° |
| 2026-04-23 16:14 | 16.60374 | -58.85788 | 29118 ft | 509 kts | 49° |
| 2026-04-23 16:14 | 16.62574 | -58.82899 | 29301 ft | 510 kts | 49° |
| 2026-04-23 16:15 | 16.64787 | -58.79992 | 29470 ft | 511 kts | 49° |
| 2026-04-23 16:15 | 16.66997 | -58.77088 | 29655 ft | 513 kts | 49° |
| 2026-04-23 16:15 | 16.69220 | -58.74166 | 29822 ft | 514 kts | 49° |
| 2026-04-23 16:15 | 16.71444 | -58.71242 | 30008 ft | 516 kts | 49° |
| 2026-04-23 16:16 | 16.73676 | -58.68305 | 30153 ft | 517 kts | 49° |
| 2026-04-23 16:16 | 16.75915 | -58.65358 | 30295 ft | 519 kts | 49° |
| 2026-04-23 16:16 | 16.78162 | -58.62399 | 30433 ft | 521 kts | 49° |
| 2026-04-23 16:16 | 16.80413 | -58.59433 | 30540 ft | 523 kts | 49° |
| 2026-04-23 16:17 | 16.82679 | -58.56448 | 30691 ft | 525 kts | 49° |
| 2026-04-23 16:17 | 16.84951 | -58.53452 | 30837 ft | 527 kts | 49° |
| 2026-04-23 16:17 | 16.87230 | -58.50446 | 30995 ft | 528 kts | 49° |
| 2026-04-23 16:17 | 16.89509 | -58.47439 | 31139 ft | 530 kts | 49° |
| 2026-04-23 16:18 | 16.91796 | -58.44420 | 31313 ft | 531 kts | 49° |
| 2026-04-23 16:18 | 16.94095 | -58.41383 | 31433 ft | 532 kts | 49° |
| 2026-04-23 16:18 | 16.96387 | -58.38355 | 31572 ft | 534 kts | 49° |
| 2026-04-23 16:18 | 16.98696 | -58.35303 | 31720 ft | 535 kts | 49° |
| 2026-04-23 16:19 | 17.01005 | -58.32249 | 31831 ft | 537 kts | 49° |
| 2026-04-23 16:19 | 17.03323 | -58.29182 | 31989 ft | 538 kts | 49° |
| 2026-04-23 16:19 | 17.07991 | -58.23002 | 32140 ft | 543 kts | 49° |
| 2026-04-23 16:20 | 17.10330 | -58.19904 | 32271 ft | 544 kts | 49° |
| 2026-04-23 16:20 | 17.12682 | -58.16785 | 32416 ft | 545 kts | 50° |
| 2026-04-23 16:20 | 17.15031 | -58.13670 | 32529 ft | 547 kts | 50° |
| 2026-04-23 16:20 | 17.17389 | -58.10542 | 32652 ft | 548 kts | 50° |
| 2026-04-23 16:21 | 17.19745 | -58.07415 | 32764 ft | 549 kts | 50° |
| 2026-04-23 16:21 | 17.22113 | -58.04270 | 32903 ft | 550 kts | 50° |
| 2026-04-23 16:21 | 17.24480 | -58.01125 | 33065 ft | 550 kts | 50° |
| 2026-04-23 16:21 | 17.26850 | -57.97976 | 33215 ft | 551 kts | 50° |
| 2026-04-23 16:22 | 17.31603 | -57.91655 | 33429 ft | 554 kts | 50° |
| 2026-04-23 16:22 | 17.33954 | -57.88525 | 33645 ft | 553 kts | 50° |
| 2026-04-23 16:22 | 17.36360 | -57.85322 | 33836 ft | 553 kts | 50° |
| 2026-04-23 16:23 | 17.38709 | -57.82191 | 33987 ft | 554 kts | 50° |
| 2026-04-23 16:23 | 17.41086 | -57.79023 | 34145 ft | 554 kts | 50° |
| 2026-04-23 16:23 | 17.43464 | -57.75852 | 34335 ft | 554 kts | 50° |
| 2026-04-23 16:23 | 17.45843 | -57.72679 | 34518 ft | 553 kts | 50° |
| 2026-04-23 16:24 | 17.48220 | -57.69506 | 34704 ft | 553 kts | 50° |
| 2026-04-23 16:24 | 17.50590 | -57.66340 | 34896 ft | 553 kts | 50° |
| 2026-04-23 16:24 | 17.52972 | -57.63158 | 35031 ft | 554 kts | 50° |
| 2026-04-23 16:24 | 17.55345 | -57.59987 | 35187 ft | 555 kts | 50° |
| 2026-04-23 16:25 | 17.57723 | -57.56808 | 35404 ft | 554 kts | 50° |
| 2026-04-23 16:25 | 17.60101 | -57.53626 | 35583 ft | 554 kts | 50° |
| 2026-04-23 16:25 | 17.62472 | -57.50452 | 35787 ft | 553 kts | 50° |
| 2026-04-23 16:25 | 17.64843 | -57.47277 | 35963 ft | 553 kts | 50° |
| 2026-04-23 16:26 | 17.67217 | -57.44096 | 36148 ft | 553 kts | 50° |
| 2026-04-23 16:26 | 17.69579 | -57.40930 | 36329 ft | 552 kts | 50° |
| 2026-04-23 16:26 | 17.71946 | -57.37755 | 36513 ft | 552 kts | 50° |
| 2026-04-23 16:26 | 17.74317 | -57.34574 | 36702 ft | 552 kts | 50° |
| 2026-04-23 16:27 | 17.76687 | -57.31392 | 36836 ft | 554 kts | 50° |
| 2026-04-23 16:27 | 17.79053 | -57.28216 | 36981 ft | 554 kts | 50° |
| 2026-04-23 16:27 | 17.81424 | -57.25029 | 37172 ft | 553 kts | 50° |
| 2026-04-23 16:27 | 17.83788 | -57.21852 | 37367 ft | 553 kts | 51° |
| 2026-04-23 16:28 | 17.86156 | -57.18667 | 37543 ft | 552 kts | 51° |
| 2026-04-23 16:28 | 17.88522 | -57.15483 | 37701 ft | 552 kts | 51° |
| 2026-04-23 16:28 | 17.90878 | -57.12311 | 37909 ft | 552 kts | 51° |
| 2026-04-23 16:28 | 17.93236 | -57.09135 | 38043 ft | 552 kts | 51° |
| 2026-04-23 16:29 | 17.95595 | -57.05957 | 38205 ft | 552 kts | 51° |
| 2026-04-23 16:29 | 17.97953 | -57.02778 | 38370 ft | 552 kts | 51° |
| 2026-04-23 16:29 | 18.00234 | -56.99521 | 38494 ft | 553 kts | 56° |
| 2026-04-23 16:29 | 18.02346 | -56.96141 | 38644 ft | 553 kts | 56° |
| 2026-04-23 16:30 | 18.04422 | -56.92748 | 38777 ft | 552 kts | 57° |
| 2026-04-23 16:30 | 18.06484 | -56.89339 | 38908 ft | 552 kts | 57° |
| 2026-04-23 16:30 | 18.10587 | -56.82518 | 39008 ft | 554 kts | 57° |
| 2026-04-23 16:31 | 18.14716 | -56.75656 | 39008 ft | 555 kts | 57° |
| 2026-04-23 16:31 | 18.18843 | -56.68801 | 39009 ft | 555 kts | 57° |
| 2026-04-23 16:32 | 18.22968 | -56.61949 | 39008 ft | 555 kts | 57° |
| 2026-04-23 16:32 | 18.27063 | -56.55138 | 39009 ft | 555 kts | 57° |
| 2026-04-23 16:33 | 18.31185 | -56.48277 | 39010 ft | 555 kts | 57° |
| 2026-04-23 16:33 | 18.35310 | -56.41401 | 39016 ft | 555 kts | 57° |
| 2026-04-23 16:34 | 18.39428 | -56.34530 | 39012 ft | 555 kts | 57° |
| 2026-04-23 16:34 | 18.43545 | -56.27651 | 39013 ft | 554 kts | 57° |
| 2026-04-23 16:35 | 18.46955 | -56.21950 | 39011 ft | 553 kts | 57° |
| 2026-04-23 16:35 | 18.51043 | -56.15107 | 39014 ft | 553 kts | 57° |
| 2026-04-23 16:36 | 18.55142 | -56.08241 | 39014 ft | 553 kts | 57° |
| 2026-04-23 16:36 | 18.59228 | -56.01386 | 38994 ft | 553 kts | 57° |
| 2026-04-23 16:37 | 18.63319 | -55.94516 | 39007 ft | 553 kts | 56° |
| 2026-04-23 16:37 | 18.67397 | -55.87662 | 39012 ft | 553 kts | 56° |
| 2026-04-23 16:38 | 18.71479 | -55.80792 | 39012 ft | 553 kts | 56° |
| 2026-04-23 16:38 | 18.75559 | -55.73920 | 39012 ft | 553 kts | 56° |
| 2026-04-23 16:39 | 18.79642 | -55.67033 | 39011 ft | 553 kts | 56° |
| 2026-04-23 16:39 | 18.83689 | -55.60201 | 39024 ft | 553 kts | 56° |
| 2026-04-23 16:40 | 18.87763 | -55.53314 | 39012 ft | 553 kts | 56° |
| 2026-04-23 16:40 | 18.91835 | -55.46425 | 39012 ft | 553 kts | 56° |
| 2026-04-23 16:41 | 18.95931 | -55.39486 | 39012 ft | 553 kts | 56° |
| 2026-04-23 16:41 | 18.99973 | -55.32631 | 39012 ft | 553 kts | 56° |
| 2026-04-23 16:42 | 19.04035 | -55.25734 | 39008 ft | 553 kts | 56° |
| 2026-04-23 16:42 | 19.08098 | -55.18828 | 39015 ft | 554 kts | 56° |
| 2026-04-23 16:43 | 19.12162 | -55.11913 | 39016 ft | 554 kts | 56° |
| 2026-04-23 16:43 | 19.16227 | -55.04988 | 39016 ft | 554 kts | 56° |
| 2026-04-23 16:44 | 19.20282 | -54.98073 | 39018 ft | 554 kts | 56° |
| 2026-04-23 16:44 | 19.24338 | -54.91148 | 39018 ft | 554 kts | 56° |
| 2026-04-23 16:45 | 19.28394 | -54.84216 | 39018 ft | 554 kts | 56° |
| 2026-04-23 16:45 | 19.32453 | -54.77269 | 39015 ft | 555 kts | 56° |
| 2026-04-23 16:46 | 19.36509 | -54.70320 | 39019 ft | 555 kts | 56° |
| 2026-04-23 16:46 | 19.40562 | -54.63368 | 39021 ft | 555 kts | 56° |
| 2026-04-23 16:47 | 19.44611 | -54.56415 | 39021 ft | 555 kts | 56° |
| 2026-04-23 16:47 | 19.48668 | -54.49441 | 39014 ft | 556 kts | 56° |
| 2026-04-23 16:48 | 19.52720 | -54.42468 | 39028 ft | 556 kts | 56° |
| 2026-04-23 16:48 | 19.56770 | -54.35488 | 39024 ft | 556 kts | 56° |
| 2026-04-23 16:49 | 19.60825 | -54.28493 | 39017 ft | 556 kts | 56° |
| 2026-04-23 16:49 | 19.64865 | -54.21515 | 39045 ft | 556 kts | 56° |
| 2026-04-23 16:50 | 19.68918 | -54.14507 | 39019 ft | 557 kts | 56° |
| 2026-04-23 16:50 | 19.72965 | -54.07501 | 39023 ft | 557 kts | 56° |
| 2026-04-23 16:51 | 19.76986 | -54.00532 | 39020 ft | 557 kts | 56° |
| 2026-04-23 16:51 | 19.81027 | -53.93518 | 39022 ft | 557 kts | 56° |
| 2026-04-23 16:52 | 19.85096 | -53.86449 | 39031 ft | 558 kts | 56° |
| 2026-04-23 16:52 | 19.89116 | -53.79456 | 39020 ft | 558 kts | 56° |
| 2026-04-23 16:53 | 19.93162 | -53.72411 | 39016 ft | 559 kts | 56° |
| 2026-04-23 16:53 | 19.97208 | -53.65356 | 39022 ft | 559 kts | 56° |
| 2026-04-23 16:54 | 20.01248 | -53.58302 | 39020 ft | 559 kts | 56° |
| 2026-04-23 16:54 | 20.05290 | -53.51237 | 39029 ft | 559 kts | 56° |
| 2026-04-23 16:55 | 20.09339 | -53.44153 | 39023 ft | 561 kts | 56° |
| 2026-04-23 16:55 | 20.13393 | -53.37051 | 39026 ft | 562 kts | 56° |
| 2026-04-23 16:56 | 20.17448 | -53.29937 | 39026 ft | 562 kts | 56° |
| 2026-04-23 16:56 | 20.21492 | -53.22833 | 39022 ft | 561 kts | 56° |
| 2026-04-23 16:57 | 20.25537 | -53.15720 | 39026 ft | 560 kts | 56° |
| 2026-04-23 16:57 | 20.29567 | -53.08623 | 39026 ft | 560 kts | 56° |
| 2026-04-23 16:58 | 20.33598 | -53.01519 | 39029 ft | 560 kts | 56° |
| 2026-04-23 16:58 | 20.37625 | -52.94411 | 39029 ft | 561 kts | 56° |
| 2026-04-23 16:59 | 20.41655 | -52.87289 | 39040 ft | 561 kts | 56° |
| 2026-04-23 16:59 | 20.45684 | -52.80160 | 39030 ft | 563 kts | 56° |
| 2026-04-23 17:00 | 20.49723 | -52.73003 | 39030 ft | 563 kts | 56° |
| 2026-04-23 17:00 | 20.53759 | -52.65845 | 39034 ft | 563 kts | 56° |
| 2026-04-23 17:01 | 20.57796 | -52.58676 | 39029 ft | 563 kts | 56° |
| 2026-04-23 17:01 | 20.61825 | -52.51511 | 39029 ft | 564 kts | 56° |
| 2026-04-23 17:02 | 20.65839 | -52.44364 | 39028 ft | 565 kts | 56° |
| 2026-04-23 17:02 | 20.69874 | -52.37170 | 39029 ft | 566 kts | 56° |
| 2026-04-23 17:03 | 20.73916 | -52.29955 | 39028 ft | 565 kts | 56° |
| 2026-04-23 17:03 | 20.77949 | -52.22745 | 39051 ft | 566 kts | 56° |
| 2026-04-23 17:04 | 20.81992 | -52.15512 | 39032 ft | 567 kts | 56° |
| 2026-04-23 17:04 | 20.86040 | -52.08258 | 39031 ft | 568 kts | 56° |
| 2026-04-23 17:05 | 20.90084 | -52.01002 | 39030 ft | 568 kts | 56° |
| 2026-04-23 17:05 | 20.94125 | -51.93740 | 39034 ft | 568 kts | 56° |
| 2026-04-23 17:06 | 20.98168 | -51.86468 | 39037 ft | 569 kts | 56° |
| 2026-04-23 17:06 | 21.02213 | -51.79183 | 39032 ft | 570 kts | 56° |
| 2026-04-23 17:07 | 21.06258 | -51.71885 | 39034 ft | 570 kts | 56° |
| 2026-04-23 17:07 | 21.10304 | -51.64578 | 39034 ft | 570 kts | 56° |
| 2026-04-23 17:08 | 21.14346 | -51.57268 | 39045 ft | 570 kts | 56° |
| 2026-04-23 17:08 | 21.18393 | -51.49941 | 39023 ft | 572 kts | 56° |
| 2026-04-23 17:09 | 21.22446 | -51.42592 | 39024 ft | 573 kts | 56° |
| 2026-04-23 17:09 | 21.26500 | -51.35231 | 39025 ft | 573 kts | 56° |
| 2026-04-23 17:10 | 21.30542 | -51.27881 | 39037 ft | 573 kts | 56° |
| 2026-04-23 17:10 | 21.34591 | -51.20511 | 39036 ft | 574 kts | 56° |
| 2026-04-23 17:11 | 21.38645 | -51.13121 | 39030 ft | 575 kts | 56° |
| 2026-04-23 17:11 | 21.42672 | -51.05771 | 39030 ft | 575 kts | 56° |
| 2026-04-23 17:12 | 21.46720 | -50.98369 | 39030 ft | 575 kts | 56° |
| 2026-04-23 17:12 | 21.50768 | -50.90960 | 39034 ft | 576 kts | 56° |
| 2026-04-23 17:13 | 21.54817 | -50.83539 | 39034 ft | 577 kts | 56° |
| 2026-04-23 17:13 | 21.58868 | -50.76104 | 39030 ft | 577 kts | 56° |
| 2026-04-23 17:14 | 21.62921 | -50.68654 | 39032 ft | 577 kts | 56° |
| 2026-04-23 17:14 | 21.66965 | -50.61212 | 39039 ft | 577 kts | 56° |
| 2026-04-23 17:15 | 21.71012 | -50.53754 | 39032 ft | 578 kts | 56° |
| 2026-04-23 17:15 | 21.75062 | -50.46278 | 39029 ft | 578 kts | 56° |
| 2026-04-23 17:16 | 21.79104 | -50.38809 | 39030 ft | 578 kts | 56° |
| 2026-04-23 17:16 | 21.83145 | -50.31328 | 39038 ft | 578 kts | 56° |
| 2026-04-23 17:17 | 21.87189 | -50.23835 | 39032 ft | 579 kts | 56° |
| 2026-04-23 17:17 | 21.91228 | -50.16338 | 39026 ft | 579 kts | 56° |
| 2026-04-23 17:18 | 21.97287 | -50.05074 | 39032 ft | 579 kts | 56° |
| 2026-04-23 17:19 | 22.01339 | -49.97571 | 39029 ft | 578 kts | 54° |
| 2026-04-23 17:19 | 22.05794 | -49.90382 | 39031 ft | 575 kts | 50° |
| 2026-04-23 17:20 | 22.10408 | -49.83323 | 39029 ft | 576 kts | 51° |
| 2026-04-23 17:21 | 22.19449 | -49.69061 | 39028 ft | 577 kts | 51° |
| 2026-04-23 17:21 | 22.26176 | -49.58279 | 39029 ft | 578 kts | 51° |
| 2026-04-23 17:22 | 22.32909 | -49.47482 | 39043 ft | 577 kts | 51° |
| 2026-04-23 17:23 | 22.39634 | -49.36684 | 39029 ft | 578 kts | 51° |
| 2026-04-23 17:24 | 22.45599 | -49.27088 | 39025 ft | 578 kts | 51° |
| 2026-04-23 17:24 | 22.53046 | -49.15079 | 39028 ft | 578 kts | 51° |
| 2026-04-23 17:25 | 22.59022 | -49.05426 | 39032 ft | 578 kts | 51° |
| 2026-04-23 17:26 | 22.67962 | -48.90951 | 39030 ft | 578 kts | 51° |
| 2026-04-23 17:27 | 22.74641 | -48.80108 | 39025 ft | 576 kts | 51° |
| 2026-04-23 17:27 | 22.79089 | -48.72876 | 39024 ft | 576 kts | 51° |
| 2026-04-23 17:28 | 22.83531 | -48.65645 | 39031 ft | 576 kts | 51° |
| 2026-04-23 17:28 | 22.87967 | -48.58412 | 39023 ft | 576 kts | 51° |
| 2026-04-23 17:29 | 22.92400 | -48.51174 | 39022 ft | 576 kts | 51° |
| 2026-04-23 17:30 | 22.99046 | -48.40304 | 39031 ft | 577 kts | 51° |
| 2026-04-23 17:30 | 23.05686 | -48.29419 | 39019 ft | 576 kts | 51° |
| 2026-04-23 17:31 | 23.10082 | -48.22202 | 39023 ft | 576 kts | 51° |
| 2026-04-23 17:31 | 23.14498 | -48.14942 | 39023 ft | 577 kts | 51° |
| 2026-04-23 17:32 | 23.18913 | -48.07670 | 39023 ft | 576 kts | 51° |
| 2026-04-23 17:32 | 23.23313 | -48.00416 | 39020 ft | 576 kts | 51° |
| 2026-04-23 17:33 | 23.27726 | -47.93131 | 39017 ft | 576 kts | 51° |
| 2026-04-23 17:33 | 23.32133 | -47.85843 | 39018 ft | 576 kts | 51° |
| 2026-04-23 17:34 | 23.36529 | -47.78562 | 39013 ft | 576 kts | 51° |
| 2026-04-23 17:35 | 23.43122 | -47.67627 | 39020 ft | 576 kts | 51° |
| 2026-04-23 17:35 | 23.49707 | -47.56677 | 39016 ft | 576 kts | 51° |
| 2026-04-23 17:36 | 23.54096 | -47.49369 | 39018 ft | 577 kts | 51° |
| 2026-04-23 17:36 | 23.58483 | -47.42052 | 39018 ft | 577 kts | 51° |
| 2026-04-23 17:37 | 23.62869 | -47.34726 | 39012 ft | 577 kts | 51° |
| 2026-04-23 17:38 | 23.69460 | -47.23699 | 39016 ft | 578 kts | 51° |
| 2026-04-23 17:38 | 23.73845 | -47.16347 | 39013 ft | 578 kts | 51° |
| 2026-04-23 17:39 | 23.78228 | -47.08986 | 39025 ft | 578 kts | 51° |
| 2026-04-23 17:39 | 23.82612 | -47.01614 | 39019 ft | 578 kts | 51° |
| 2026-04-23 17:40 | 23.86987 | -46.94249 | 38998 ft | 578 kts | 51° |
| 2026-04-23 17:40 | 23.91366 | -46.86867 | 39023 ft | 579 kts | 51° |
| 2026-04-23 17:41 | 23.95744 | -46.79471 | 39010 ft | 579 kts | 51° |
| 2026-04-23 17:41 | 24.02293 | -46.68390 | 39005 ft | 578 kts | 51° |
| 2026-04-23 17:42 | 24.08830 | -46.57303 | 39008 ft | 578 kts | 51° |
| 2026-04-23 17:43 | 24.13150 | -46.49964 | 39010 ft | 578 kts | 51° |
| 2026-04-23 17:43 | 24.17504 | -46.42557 | 39010 ft | 578 kts | 51° |
| 2026-04-23 17:44 | 24.21847 | -46.35156 | 39004 ft | 577 kts | 51° |
| 2026-04-23 17:44 | 24.28352 | -46.24050 | 39007 ft | 577 kts | 52° |
| 2026-04-23 17:45 | 24.34849 | -46.12934 | 39011 ft | 577 kts | 52° |
| 2026-04-23 17:46 | 24.41340 | -46.01801 | 39007 ft | 577 kts | 52° |
| 2026-04-23 17:46 | 24.45660 | -45.94378 | 39003 ft | 577 kts | 52° |
| 2026-04-23 17:47 | 24.49978 | -45.86948 | 39004 ft | 577 kts | 52° |
| 2026-04-23 17:48 | 24.56446 | -45.75795 | 38993 ft | 577 kts | 52° |
| 2026-04-23 17:48 | 24.60757 | -45.68348 | 39028 ft | 578 kts | 52° |
| 2026-04-23 17:49 | 24.65058 | -45.60907 | 39003 ft | 577 kts | 52° |
| 2026-04-23 17:49 | 24.69329 | -45.53505 | 39005 ft | 577 kts | 52° |
| 2026-04-23 17:50 | 24.73621 | -45.46058 | 39003 ft | 577 kts | 52° |
| 2026-04-23 17:50 | 24.80056 | -45.34867 | 39002 ft | 576 kts | 52° |
| 2026-04-23 17:51 | 24.84334 | -45.27414 | 39001 ft | 576 kts | 52° |
| 2026-04-23 17:52 | 24.90754 | -45.16208 | 38997 ft | 576 kts | 52° |
| 2026-04-23 17:52 | 24.97158 | -45.05002 | 38998 ft | 576 kts | 52° |
| 2026-04-23 17:53 | 25.01826 | -44.97937 | 39004 ft | 566 kts | 41° |
| 2026-04-23 17:53 | 25.04452 | -44.94710 | 38998 ft | 564 kts | 40° |
| 2026-04-23 17:54 | 25.09786 | -44.88366 | 38998 ft | 564 kts | 39° |
| 2026-04-23 17:54 | 25.17829 | -44.78886 | 38985 ft | 564 kts | 39° |
| 2026-04-23 17:55 | 25.25851 | -44.69365 | 38982 ft | 564 kts | 40° |
| 2026-04-23 17:56 | 25.31185 | -44.63011 | 38997 ft | 564 kts | 40° |
| 2026-04-23 17:56 | 25.39201 | -44.53450 | 38993 ft | 565 kts | 40° |
| 2026-04-23 17:57 | 25.44534 | -44.47076 | 39007 ft | 565 kts | 39° |
| 2026-04-23 17:58 | 25.52497 | -44.37545 | 38994 ft | 565 kts | 39° |
| 2026-04-23 17:58 | 25.57839 | -44.31141 | 38992 ft | 565 kts | 39° |
| 2026-04-23 17:59 | 25.63172 | -44.24738 | 38991 ft | 565 kts | 39° |
| 2026-04-23 17:59 | 25.68501 | -44.18330 | 38992 ft | 566 kts | 39° |
| 2026-04-23 18:00 | 25.72971 | -44.12948 | 38991 ft | 566 kts | 39° |
| 2026-04-23 18:00 | 25.79167 | -44.05477 | 38991 ft | 566 kts | 39° |
| 2026-04-23 18:01 | 25.84497 | -43.99041 | 38990 ft | 566 kts | 39° |
| 2026-04-23 18:01 | 25.89819 | -43.92605 | 38988 ft | 566 kts | 39° |
| 2026-04-23 18:02 | 25.94239 | -43.87252 | 38985 ft | 565 kts | 39° |
| 2026-04-23 18:02 | 26.00450 | -43.79721 | 38984 ft | 565 kts | 39° |
| 2026-04-23 18:03 | 26.05766 | -43.73265 | 38985 ft | 565 kts | 39° |
| 2026-04-23 18:03 | 26.11059 | -43.66828 | 38982 ft | 565 kts | 40° |
| 2026-04-23 18:04 | 26.16368 | -43.60362 | 38983 ft | 565 kts | 40° |
| 2026-04-23 18:04 | 26.21672 | -43.53890 | 38982 ft | 565 kts | 40° |
| 2026-04-23 18:05 | 26.26947 | -43.47447 | 39000 ft | 565 kts | 40° |
| 2026-04-23 18:05 | 26.32248 | -43.40961 | 38973 ft | 564 kts | 40° |
| 2026-04-23 18:06 | 26.37518 | -43.34505 | 38989 ft | 564 kts | 40° |
| 2026-04-23 18:06 | 26.42783 | -43.28044 | 38991 ft | 564 kts | 40° |
| 2026-04-23 18:07 | 26.48056 | -43.21566 | 38975 ft | 564 kts | 40° |
| 2026-04-23 18:07 | 26.53326 | -43.15081 | 38973 ft | 564 kts | 40° |
| 2026-04-23 18:08 | 26.57716 | -43.09672 | 38976 ft | 564 kts | 40° |
| 2026-04-23 18:08 | 26.63871 | -43.02077 | 38978 ft | 564 kts | 40° |
| 2026-04-23 18:09 | 26.69103 | -42.95609 | 38989 ft | 564 kts | 40° |
| 2026-04-23 18:09 | 26.74368 | -42.89091 | 38978 ft | 564 kts | 40° |
| 2026-04-23 18:10 | 26.79632 | -42.82565 | 38977 ft | 564 kts | 40° |
| 2026-04-23 18:10 | 26.83310 | -42.78000 | 38978 ft | 564 kts | 40° |
| 2026-04-23 18:12 | 26.87944 | -42.72239 | 38974 ft | 557 kts | 40° |
| 2026-04-23 18:12 | 26.90497 | -42.69046 | 38983 ft | 542 kts | 40° |
| 2026-04-23 18:13 | 26.92972 | -42.65944 | 38986 ft | 527 kts | 40° |
| 2026-04-23 18:13 | 26.97848 | -42.59869 | 38987 ft | 527 kts | 39° |
| 2026-04-23 18:14 | 27.01971 | -42.54759 | 38975 ft | 534 kts | 39° |
| 2026-04-23 18:14 | 27.07003 | -42.48493 | 38976 ft | 543 kts | 40° |
| 2026-04-23 18:15 | 27.12929 | -42.41079 | 38978 ft | 552 kts | 40° |
| 2026-04-23 18:15 | 27.17216 | -42.35704 | 38972 ft | 559 kts | 40° |
| 2026-04-23 18:16 | 27.22433 | -42.29154 | 38967 ft | 565 kts | 40° |
| 2026-04-23 18:16 | 27.27665 | -42.22567 | 38970 ft | 565 kts | 40° |
| 2026-04-23 18:17 | 27.35511 | -42.12676 | 38971 ft | 563 kts | 40° |
| 2026-04-23 18:17 | 27.40727 | -42.06094 | 38971 ft | 563 kts | 40° |
| 2026-04-23 18:18 | 27.45908 | -41.99549 | 38977 ft | 563 kts | 40° |
| 2026-04-23 18:18 | 27.51117 | -41.92957 | 38994 ft | 563 kts | 41° |
| 2026-04-23 18:19 | 27.56317 | -41.86365 | 38974 ft | 562 kts | 41° |
| 2026-04-23 18:19 | 27.61510 | -41.79772 | 38971 ft | 562 kts | 41° |
| 2026-04-23 18:20 | 27.66680 | -41.73198 | 38975 ft | 561 kts | 41° |
| 2026-04-23 18:20 | 27.71860 | -41.66602 | 38974 ft | 561 kts | 41° |
| 2026-04-23 18:21 | 27.77025 | -41.60014 | 38969 ft | 561 kts | 41° |
| 2026-04-23 18:21 | 27.82203 | -41.53401 | 38971 ft | 561 kts | 41° |
| 2026-04-23 18:22 | 27.87374 | -41.46783 | 38973 ft | 560 kts | 41° |
| 2026-04-23 18:22 | 27.92494 | -41.40221 | 38969 ft | 560 kts | 41° |
| 2026-04-23 18:23 | 28.00222 | -41.30298 | 38972 ft | 558 kts | 42° |
| 2026-04-23 18:24 | 28.07916 | -41.20393 | 38969 ft | 558 kts | 42° |
| 2026-04-23 18:25 | 28.15567 | -41.10525 | 38968 ft | 558 kts | 42° |
| 2026-04-23 18:25 | 28.20687 | -41.03906 | 38971 ft | 558 kts | 42° |
| 2026-04-23 18:26 | 28.25811 | -40.97273 | 38968 ft | 558 kts | 42° |
| 2026-04-23 18:26 | 28.30931 | -40.90634 | 38964 ft | 558 kts | 42° |
| 2026-04-23 18:27 | 28.35997 | -40.84054 | 38988 ft | 557 kts | 42° |
| 2026-04-23 18:27 | 28.41093 | -40.77424 | 38970 ft | 556 kts | 42° |
| 2026-04-23 18:28 | 28.46180 | -40.70796 | 38966 ft | 556 kts | 42° |
| 2026-04-23 18:28 | 28.51268 | -40.64157 | 38969 ft | 555 kts | 43° |
| 2026-04-23 18:29 | 28.56340 | -40.57528 | 38965 ft | 555 kts | 43° |
| 2026-04-23 18:29 | 28.61380 | -40.50929 | 38967 ft | 555 kts | 43° |
| 2026-04-23 18:30 | 28.66444 | -40.44290 | 38966 ft | 555 kts | 43° |
| 2026-04-23 18:30 | 28.71490 | -40.37662 | 38966 ft | 554 kts | 43° |
| 2026-04-23 18:31 | 28.76548 | -40.31009 | 38968 ft | 554 kts | 43° |
| 2026-04-23 18:31 | 28.81585 | -40.24371 | 38968 ft | 553 kts | 43° |
| 2026-04-23 18:32 | 28.86616 | -40.17732 | 38966 ft | 552 kts | 43° |
| 2026-04-23 18:32 | 28.91605 | -40.11137 | 38966 ft | 552 kts | 43° |
| 2026-04-23 18:33 | 28.96625 | -40.04492 | 38966 ft | 552 kts | 43° |
| 2026-04-23 18:33 | 29.01649 | -39.97862 | 38976 ft | 549 kts | 42° |
| 2026-04-23 18:34 | 29.06922 | -39.91608 | 38966 ft | 545 kts | 38° |
| 2026-04-23 18:34 | 29.12307 | -39.85472 | 38958 ft | 545 kts | 39° |
| 2026-04-23 18:35 | 29.17594 | -39.79341 | 38966 ft | 545 kts | 39° |
| 2026-04-23 18:35 | 29.22890 | -39.73110 | 38965 ft | 545 kts | 40° |
| 2026-04-23 18:36 | 29.28162 | -39.66876 | 38978 ft | 545 kts | 40° |
| 2026-04-23 18:36 | 29.33448 | -39.60618 | 38964 ft | 545 kts | 40° |
| 2026-04-23 18:37 | 29.38736 | -39.54352 | 38963 ft | 545 kts | 40° |
| 2026-04-23 18:37 | 29.43988 | -39.48119 | 38965 ft | 544 kts | 40° |
| 2026-04-23 18:38 | 29.49232 | -39.41887 | 38963 ft | 544 kts | 40° |
| 2026-04-23 18:38 | 29.54487 | -39.35632 | 38965 ft | 544 kts | 40° |
| 2026-04-23 18:39 | 29.59740 | -39.29369 | 38971 ft | 543 kts | 40° |
| 2026-04-23 18:39 | 29.64975 | -39.23116 | 38966 ft | 542 kts | 40° |
| 2026-04-23 18:40 | 29.70196 | -39.16871 | 38964 ft | 542 kts | 40° |
| 2026-04-23 18:40 | 29.75419 | -39.10614 | 38966 ft | 542 kts | 40° |
| 2026-04-23 18:41 | 29.80614 | -39.04381 | 38965 ft | 542 kts | 40° |
| 2026-04-23 18:41 | 29.85832 | -38.98109 | 38965 ft | 541 kts | 40° |
| 2026-04-23 18:42 | 29.91047 | -38.91831 | 38964 ft | 542 kts | 40° |
| 2026-04-23 18:42 | 29.96259 | -38.85547 | 38974 ft | 542 kts | 41° |
| 2026-04-23 18:43 | 30.01443 | -38.79285 | 38962 ft | 541 kts | 41° |
| 2026-04-23 18:43 | 30.06646 | -38.72991 | 38964 ft | 541 kts | 41° |
| 2026-04-23 18:44 | 30.11849 | -38.66687 | 38966 ft | 541 kts | 41° |
| 2026-04-23 18:44 | 30.17039 | -38.60388 | 38964 ft | 541 kts | 41° |
| 2026-04-23 18:45 | 30.22200 | -38.54115 | 38961 ft | 541 kts | 41° |
| 2026-04-23 18:45 | 30.27381 | -38.47806 | 38961 ft | 541 kts | 41° |
| 2026-04-23 18:46 | 30.32567 | -38.41481 | 38968 ft | 541 kts | 41° |
| 2026-04-23 18:46 | 30.37762 | -38.35135 | 38960 ft | 541 kts | 41° |
| 2026-04-23 18:47 | 30.42898 | -38.28851 | 38960 ft | 541 kts | 41° |
| 2026-04-23 18:47 | 30.48068 | -38.22514 | 38960 ft | 541 kts | 41° |
| 2026-04-23 18:48 | 30.53237 | -38.16168 | 38959 ft | 541 kts | 42° |
| 2026-04-23 18:48 | 30.58411 | -38.09805 | 38958 ft | 540 kts | 42° |
| 2026-04-23 18:49 | 30.63532 | -38.03496 | 38960 ft | 540 kts | 42° |
| 2026-04-23 18:49 | 30.68687 | -37.97137 | 38961 ft | 540 kts | 42° |
| 2026-04-23 18:50 | 30.72974 | -37.91841 | 38972 ft | 540 kts | 43° |
| 2026-04-23 18:50 | 30.78971 | -37.84416 | 38960 ft | 539 kts | 43° |
| 2026-04-23 18:51 | 30.84109 | -37.78045 | 38961 ft | 538 kts | 43° |
| 2026-04-23 18:51 | 30.89201 | -37.71721 | 38960 ft | 538 kts | 43° |
| 2026-04-23 18:52 | 30.94354 | -37.65311 | 38964 ft | 538 kts | 43° |
| 2026-04-23 18:52 | 30.99431 | -37.58982 | 38964 ft | 538 kts | 43° |
| 2026-04-23 18:53 | 31.04550 | -37.52592 | 38964 ft | 538 kts | 43° |
| 2026-04-23 18:53 | 31.09666 | -37.46195 | 38967 ft | 539 kts | 43° |
| 2026-04-23 18:54 | 31.14777 | -37.39794 | 38966 ft | 539 kts | 43° |
| 2026-04-23 18:54 | 31.19854 | -37.33423 | 38962 ft | 539 kts | 43° |
| 2026-04-23 18:55 | 31.24971 | -37.26991 | 38963 ft | 539 kts | 43° |
| 2026-04-23 18:55 | 31.30072 | -37.20569 | 38966 ft | 539 kts | 43° |
| 2026-04-23 18:56 | 31.34324 | -37.15207 | 38963 ft | 539 kts | 43° |
| 2026-04-23 18:56 | 31.40283 | -37.07680 | 38966 ft | 539 kts | 43° |
| 2026-04-23 18:57 | 31.45345 | -37.01275 | 38965 ft | 539 kts | 44° |
| 2026-04-23 18:57 | 31.50446 | -36.94808 | 38974 ft | 539 kts | 44° |
| 2026-04-23 18:58 | 31.55548 | -36.88331 | 38967 ft | 539 kts | 44° |
| 2026-04-23 18:58 | 31.60635 | -36.81859 | 38963 ft | 540 kts | 44° |
| 2026-04-23 18:59 | 31.65685 | -36.75423 | 38963 ft | 540 kts | 44° |
| 2026-04-23 18:59 | 31.70769 | -36.68934 | 38967 ft | 539 kts | 44° |
| 2026-04-23 19:00 | 31.75856 | -36.62429 | 38967 ft | 539 kts | 44° |
| 2026-04-23 19:00 | 31.80923 | -36.55939 | 38969 ft | 539 kts | 44° |
| 2026-04-23 19:01 | 31.85991 | -36.49435 | 38970 ft | 539 kts | 44° |
| 2026-04-23 19:01 | 31.91062 | -36.42917 | 38965 ft | 539 kts | 44° |
| 2026-04-23 19:02 | 31.95268 | -36.37501 | 38965 ft | 539 kts | 44° |
| 2026-04-23 19:02 | 32.01155 | -36.29908 | 38965 ft | 539 kts | 44° |
| 2026-04-23 19:03 | 32.06210 | -36.23376 | 38965 ft | 539 kts | 45° |
| 2026-04-23 19:03 | 32.11256 | -36.16844 | 38967 ft | 539 kts | 45° |
| 2026-04-23 19:04 | 32.16322 | -36.10275 | 38963 ft | 539 kts | 45° |
| 2026-04-23 19:04 | 32.21360 | -36.03729 | 38963 ft | 539 kts | 45° |
| 2026-04-23 19:05 | 32.26400 | -35.97169 | 38981 ft | 539 kts | 45° |
| 2026-04-23 19:05 | 32.31406 | -35.90643 | 38966 ft | 538 kts | 45° |
| 2026-04-23 19:06 | 32.36431 | -35.84080 | 38963 ft | 538 kts | 45° |
| 2026-04-23 19:06 | 32.40611 | -35.78611 | 38963 ft | 538 kts | 45° |
| 2026-04-23 19:07 | 32.45630 | -35.72035 | 38970 ft | 538 kts | 45° |
| 2026-04-23 19:07 | 32.51458 | -35.64383 | 38966 ft | 537 kts | 45° |
| 2026-04-23 19:08 | 32.55616 | -35.58914 | 38963 ft | 537 kts | 45° |
| 2026-04-23 19:08 | 32.60605 | -35.52341 | 38966 ft | 537 kts | 45° |
| 2026-04-23 19:09 | 32.65593 | -35.45759 | 38974 ft | 536 kts | 45° |
| 2026-04-23 19:09 | 32.70580 | -35.39165 | 38963 ft | 536 kts | 45° |
| 2026-04-23 19:10 | 32.75566 | -35.32561 | 38964 ft | 536 kts | 45° |
| 2026-04-23 19:10 | 32.80540 | -35.25961 | 38966 ft | 536 kts | 46° |
| 2026-04-23 19:11 | 32.85510 | -35.19352 | 38968 ft | 535 kts | 46° |
| 2026-04-23 19:11 | 32.90436 | -35.12791 | 38970 ft | 534 kts | 46° |
| 2026-04-23 19:12 | 32.95380 | -35.06195 | 38968 ft | 534 kts | 46° |
| 2026-04-23 19:12 | 33.00337 | -34.99571 | 38966 ft | 535 kts | 46° |
| 2026-04-23 19:13 | 33.05532 | -34.93224 | 38968 ft | 532 kts | 41° |
| 2026-04-23 19:13 | 33.10907 | -34.87168 | 38963 ft | 532 kts | 40° |
| 2026-04-23 19:14 | 33.16221 | -34.81100 | 38963 ft | 532 kts | 41° |
| 2026-04-23 19:14 | 33.21529 | -34.74923 | 38963 ft | 532 kts | 41° |
| 2026-04-23 19:15 | 33.26809 | -34.68729 | 38964 ft | 532 kts | 41° |
| 2026-04-23 19:15 | 33.32090 | -34.62523 | 38966 ft | 532 kts | 41° |
| 2026-04-23 19:16 | 33.37354 | -34.56332 | 38980 ft | 532 kts | 42° |
| 2026-04-23 19:16 | 33.42636 | -34.50109 | 38960 ft | 533 kts | 42° |
| 2026-04-23 19:17 | 33.50566 | -34.40747 | 38965 ft | 533 kts | 42° |
| 2026-04-23 19:17 | 33.55848 | -34.34498 | 38962 ft | 533 kts | 42° |
| 2026-04-23 19:18 | 33.61130 | -34.28235 | 38965 ft | 533 kts | 42° |
| 2026-04-23 19:18 | 33.66370 | -34.22011 | 38965 ft | 533 kts | 42° |
| 2026-04-23 19:19 | 33.74284 | -34.12591 | 38970 ft | 533 kts | 42° |
| 2026-04-23 19:20 | 33.82162 | -34.03188 | 38962 ft | 533 kts | 42° |
| 2026-04-23 19:20 | 33.87419 | -33.96898 | 38965 ft | 533 kts | 42° |
| 2026-04-23 19:21 | 33.95313 | -33.87432 | 38965 ft | 533 kts | 42° |
| 2026-04-23 19:22 | 34.00568 | -33.81116 | 38965 ft | 533 kts | 42° |
| 2026-04-23 19:22 | 34.08418 | -33.71659 | 38976 ft | 533 kts | 42° |
| 2026-04-23 19:23 | 34.13682 | -33.65303 | 38963 ft | 534 kts | 42° |
| 2026-04-23 19:24 | 34.21563 | -33.55764 | 38963 ft | 534 kts | 42° |
| 2026-04-23 19:24 | 34.29394 | -33.46260 | 38963 ft | 534 kts | 42° |
| 2026-04-23 19:25 | 34.39876 | -33.33495 | 38963 ft | 533 kts | 43° |
| 2026-04-23 19:26 | 34.47717 | -33.23916 | 38970 ft | 534 kts | 42° |
| 2026-04-23 19:27 | 34.60758 | -33.07923 | 38963 ft | 534 kts | 43° |
| 2026-04-23 19:28 | 34.71192 | -32.95073 | 38963 ft | 534 kts | 43° |
| 2026-04-23 19:29 | 34.79001 | -32.85422 | 38973 ft | 534 kts | 42° |
| 2026-04-23 19:30 | 34.86805 | -32.75751 | 38970 ft | 533 kts | 43° |
| 2026-04-23 19:31 | 34.94577 | -32.66092 | 38955 ft | 533 kts | 43° |
| 2026-04-23 19:31 | 34.99773 | -32.59618 | 38963 ft | 533 kts | 43° |
| 2026-04-23 19:32 | 35.04933 | -32.53177 | 38978 ft | 533 kts | 43° |
| 2026-04-23 19:32 | 35.10125 | -32.46684 | 38961 ft | 533 kts | 43° |
| 2026-04-23 19:33 | 35.15286 | -32.40216 | 38967 ft | 533 kts | 43° |
| 2026-04-23 19:33 | 35.23056 | -32.30457 | 38965 ft | 533 kts | 42° |
| 2026-04-23 19:34 | 35.28230 | -32.23941 | 38967 ft | 533 kts | 42° |
| 2026-04-23 19:35 | 35.35977 | -32.14163 | 38965 ft | 533 kts | 43° |
| 2026-04-23 19:35 | 35.41139 | -32.07631 | 38966 ft | 533 kts | 43° |
| 2026-04-23 19:36 | 35.46263 | -32.01134 | 38987 ft | 533 kts | 42° |
| 2026-04-23 19:36 | 35.51420 | -31.94582 | 38968 ft | 532 kts | 42° |
| 2026-04-23 19:37 | 35.56566 | -31.88033 | 38967 ft | 533 kts | 43° |
| 2026-04-23 19:37 | 35.61713 | -31.81470 | 38965 ft | 533 kts | 43° |
| 2026-04-23 19:38 | 35.66842 | -31.74914 | 38961 ft | 532 kts | 42° |
| 2026-04-23 19:38 | 35.71970 | -31.68348 | 38961 ft | 532 kts | 42° |
| 2026-04-23 19:39 | 35.77096 | -31.61773 | 38962 ft | 532 kts | 43° |
| 2026-04-23 19:39 | 35.82186 | -31.55230 | 38969 ft | 532 kts | 43° |
| 2026-04-23 19:40 | 35.87301 | -31.48641 | 38961 ft | 532 kts | 42° |
| 2026-04-23 19:40 | 35.92422 | -31.42031 | 38960 ft | 532 kts | 42° |
| 2026-04-23 19:41 | 35.97530 | -31.35426 | 38963 ft | 532 kts | 43° |
| 2026-04-23 19:41 | 36.02609 | -31.28845 | 38960 ft | 532 kts | 43° |
| 2026-04-23 19:42 | 36.07705 | -31.22229 | 38962 ft | 532 kts | 43° |
| 2026-04-23 19:42 | 36.12807 | -31.15591 | 38958 ft | 532 kts | 43° |
| 2026-04-23 19:43 | 36.17901 | -31.08950 | 38960 ft | 532 kts | 43° |
| 2026-04-23 19:43 | 36.22991 | -31.02301 | 38957 ft | 532 kts | 43° |
| 2026-04-23 19:44 | 36.28087 | -30.95631 | 38958 ft | 532 kts | 43° |
| 2026-04-23 19:44 | 36.33145 | -30.88997 | 38955 ft | 532 kts | 43° |
| 2026-04-23 19:45 | 36.38231 | -30.82313 | 38953 ft | 532 kts | 43° |
| 2026-04-23 19:45 | 36.43307 | -30.75628 | 38953 ft | 532 kts | 43° |
| 2026-04-23 19:46 | 36.48371 | -30.68946 | 38946 ft | 532 kts | 43° |
| 2026-04-23 19:46 | 36.53445 | -30.62235 | 38950 ft | 532 kts | 43° |
| 2026-04-23 19:47 | 36.57669 | -30.56641 | 38945 ft | 532 kts | 43° |
| 2026-04-23 19:47 | 36.63548 | -30.48835 | 38948 ft | 532 kts | 43° |
| 2026-04-23 19:48 | 36.68601 | -30.42113 | 38946 ft | 532 kts | 43° |
| 2026-04-23 19:48 | 36.73658 | -30.35370 | 38952 ft | 531 kts | 43° |
| 2026-04-23 19:49 | 36.78703 | -30.28630 | 38945 ft | 531 kts | 43° |
| 2026-04-23 19:49 | 36.83733 | -30.21896 | 38943 ft | 531 kts | 43° |
| 2026-04-23 19:50 | 36.88775 | -30.15133 | 38948 ft | 532 kts | 43° |
| 2026-04-23 19:50 | 36.93809 | -30.08365 | 38944 ft | 532 kts | 43° |
| 2026-04-23 19:51 | 36.98850 | -30.01574 | 38973 ft | 532 kts | 43° |
| 2026-04-23 19:51 | 37.01356 | -29.98183 | 39113 ft | 532 kts | 43° |
| 2026-04-23 19:51 | 37.03818 | -29.94732 | 39316 ft | 531 kts | 44° |
| 2026-04-23 19:51 | 37.06249 | -29.91228 | 39513 ft | 531 kts | 45° |
| 2026-04-23 19:52 | 37.07836 | -29.88920 | 39627 ft | 530 kts | 45° |
| 2026-04-23 19:52 | 37.11039 | -29.84256 | 39833 ft | 530 kts | 45° |
| 2026-04-23 19:52 | 37.13434 | -29.80779 | 39991 ft | 529 kts | 44° |
| 2026-04-23 19:52 | 37.15852 | -29.77279 | 40140 ft | 528 kts | 44° |
| 2026-04-23 19:53 | 37.18246 | -29.73823 | 40317 ft | 528 kts | 44° |
| 2026-04-23 19:53 | 37.20668 | -29.70329 | 40425 ft | 528 kts | 44° |
| 2026-04-23 19:53 | 37.23071 | -29.66862 | 40557 ft | 528 kts | 44° |
| 2026-04-23 19:53 | 37.25492 | -29.63365 | 40682 ft | 527 kts | 44° |
| 2026-04-23 19:54 | 37.27865 | -29.59934 | 40813 ft | 527 kts | 44° |
| 2026-04-23 19:54 | 37.32683 | -29.52956 | 40942 ft | 528 kts | 44° |
| 2026-04-23 19:55 | 37.37486 | -29.45983 | 40930 ft | 528 kts | 44° |
| 2026-04-23 19:55 | 37.42277 | -29.39011 | 40927 ft | 528 kts | 44° |
| 2026-04-23 19:56 | 37.47084 | -29.32002 | 40933 ft | 528 kts | 44° |
| 2026-04-23 19:56 | 37.51882 | -29.24989 | 40955 ft | 528 kts | 44° |
| 2026-04-23 19:57 | 37.55867 | -29.19154 | 40930 ft | 528 kts | 44° |
| 2026-04-23 19:57 | 37.60662 | -29.12119 | 40925 ft | 528 kts | 44° |
| 2026-04-23 19:58 | 37.66226 | -29.03937 | 40922 ft | 528 kts | 44° |
| 2026-04-23 19:58 | 37.70209 | -28.98067 | 40922 ft | 529 kts | 44° |
| 2026-04-23 19:59 | 37.74997 | -28.90996 | 40923 ft | 529 kts | 44° |
| 2026-04-23 19:59 | 37.79768 | -28.83936 | 40920 ft | 529 kts | 44° |
| 2026-04-23 20:00 | 37.84552 | -28.76841 | 40916 ft | 529 kts | 44° |
| 2026-04-23 20:00 | 37.89300 | -28.69781 | 40928 ft | 529 kts | 44° |
| 2026-04-23 20:01 | 37.94075 | -28.62669 | 40913 ft | 528 kts | 44° |
| 2026-04-23 20:01 | 37.98824 | -28.55578 | 40914 ft | 528 kts | 44° |
| 2026-04-23 20:02 | 38.03588 | -28.48451 | 40906 ft | 528 kts | 44° |
| 2026-04-23 20:02 | 38.08204 | -28.41531 | 40905 ft | 528 kts | 44° |
| 2026-04-23 20:03 | 38.13059 | -28.34237 | 40908 ft | 528 kts | 44° |
| 2026-04-23 20:03 | 38.17774 | -28.27135 | 40905 ft | 528 kts | 44° |
| 2026-04-23 20:04 | 38.22505 | -28.19994 | 40908 ft | 528 kts | 44° |
| 2026-04-23 20:04 | 38.27231 | -28.12842 | 40897 ft | 527 kts | 44° |
| 2026-04-23 20:05 | 38.31953 | -28.05684 | 40905 ft | 527 kts | 44° |
| 2026-04-23 20:05 | 38.36667 | -27.98520 | 40898 ft | 526 kts | 44° |
| 2026-04-23 20:06 | 38.41338 | -27.91407 | 40893 ft | 526 kts | 44° |
| 2026-04-23 20:06 | 38.46044 | -27.84226 | 40894 ft | 526 kts | 44° |
| 2026-04-23 20:07 | 38.50742 | -27.77039 | 40903 ft | 526 kts | 45° |
| 2026-04-23 20:07 | 38.55395 | -27.69905 | 40909 ft | 525 kts | 45° |
| 2026-04-23 20:08 | 38.60066 | -27.62727 | 40889 ft | 525 kts | 45° |
| 2026-04-23 20:08 | 38.64733 | -27.55540 | 40884 ft | 525 kts | 45° |
| 2026-04-23 20:09 | 38.69400 | -27.48337 | 40885 ft | 525 kts | 45° |
| 2026-04-23 20:09 | 38.74061 | -27.41127 | 40887 ft | 525 kts | 45° |
| 2026-04-23 20:10 | 38.78688 | -27.33952 | 40881 ft | 525 kts | 45° |
| 2026-04-23 20:10 | 38.83329 | -27.26741 | 40885 ft | 525 kts | 45° |
| 2026-04-23 20:11 | 38.87982 | -27.19496 | 40886 ft | 525 kts | 45° |
| 2026-04-23 20:11 | 38.92620 | -27.12255 | 40867 ft | 524 kts | 45° |
| 2026-04-23 20:12 | 38.97255 | -27.05003 | 40866 ft | 524 kts | 45° |
| 2026-04-23 20:12 | 39.01880 | -26.97750 | 40871 ft | 524 kts | 45° |
| 2026-04-23 20:13 | 39.06472 | -26.90534 | 40871 ft | 524 kts | 45° |
| 2026-04-23 20:13 | 39.11108 | -26.83231 | 40871 ft | 524 kts | 45° |
| 2026-04-23 20:14 | 39.15686 | -26.76002 | 40869 ft | 524 kts | 45° |
| 2026-04-23 20:14 | 39.20290 | -26.68716 | 40868 ft | 524 kts | 45° |
| 2026-04-23 20:15 | 39.24886 | -26.61427 | 40869 ft | 524 kts | 45° |
| 2026-04-23 20:15 | 39.29485 | -26.54117 | 40877 ft | 524 kts | 45° |
| 2026-04-23 20:16 | 39.34075 | -26.46802 | 40862 ft | 524 kts | 45° |
| 2026-04-23 20:16 | 39.38658 | -26.39482 | 40861 ft | 524 kts | 45° |
| 2026-04-23 20:17 | 39.43224 | -26.32174 | 40859 ft | 524 kts | 45° |
| 2026-04-23 20:17 | 39.47799 | -26.24833 | 40870 ft | 525 kts | 45° |
| 2026-04-23 20:18 | 39.52375 | -26.17473 | 40858 ft | 524 kts | 45° |
| 2026-04-23 20:18 | 39.56947 | -26.10103 | 40870 ft | 525 kts | 45° |
| 2026-04-23 20:19 | 39.61521 | -26.02714 | 40844 ft | 525 kts | 45° |
| 2026-04-23 20:19 | 39.66088 | -25.95316 | 40850 ft | 525 kts | 45° |
| 2026-04-23 20:20 | 39.70650 | -25.87909 | 40845 ft | 525 kts | 45° |
| 2026-04-23 20:20 | 39.75171 | -25.80552 | 40846 ft | 524 kts | 45° |
| 2026-04-23 20:21 | 39.79715 | -25.73139 | 40847 ft | 524 kts | 45° |
| 2026-04-23 20:21 | 39.84267 | -25.65697 | 40840 ft | 524 kts | 45° |
| 2026-04-23 20:22 | 39.88807 | -25.58258 | 40837 ft | 524 kts | 45° |
| 2026-04-23 20:22 | 39.93326 | -25.50834 | 40840 ft | 523 kts | 45° |
| 2026-04-23 20:23 | 39.97849 | -25.43388 | 40837 ft | 523 kts | 46° |
| 2026-04-23 20:23 | 40.02353 | -25.35954 | 40834 ft | 523 kts | 46° |
| 2026-04-23 20:24 | 40.06853 | -25.28510 | 40835 ft | 524 kts | 46° |
| 2026-04-23 20:24 | 40.11368 | -25.21022 | 40835 ft | 524 kts | 46° |
| 2026-04-23 20:25 | 40.15867 | -25.13543 | 40834 ft | 524 kts | 46° |
| 2026-04-23 20:25 | 40.20361 | -25.06055 | 40834 ft | 524 kts | 46° |
| 2026-04-23 20:26 | 40.24840 | -24.98572 | 40830 ft | 523 kts | 46° |
| 2026-04-23 20:26 | 40.29329 | -24.91055 | 40835 ft | 522 kts | 46° |
| 2026-04-23 20:27 | 40.33798 | -24.83556 | 40830 ft | 522 kts | 46° |
| 2026-04-23 20:27 | 40.38265 | -24.76041 | 40827 ft | 522 kts | 46° |
| 2026-04-23 20:28 | 40.42697 | -24.68568 | 40843 ft | 522 kts | 46° |
| 2026-04-23 20:28 | 40.47157 | -24.61025 | 40823 ft | 521 kts | 46° |
| 2026-04-23 20:29 | 40.51592 | -24.53509 | 40823 ft | 520 kts | 46° |
| 2026-04-23 20:29 | 40.56001 | -24.46020 | 40833 ft | 520 kts | 46° |
| 2026-04-23 20:30 | 40.60426 | -24.38486 | 40839 ft | 520 kts | 46° |
| 2026-04-23 20:30 | 40.67063 | -24.27148 | 40822 ft | 519 kts | 46° |
| 2026-04-23 20:31 | 40.71446 | -24.19638 | 40817 ft | 519 kts | 47° |
| 2026-04-23 20:31 | 40.75862 | -24.12056 | 40817 ft | 519 kts | 47° |
| 2026-04-23 20:32 | 40.80233 | -24.04530 | 40819 ft | 519 kts | 47° |
| 2026-04-23 20:32 | 40.84632 | -23.96938 | 40818 ft | 519 kts | 47° |
| 2026-04-23 20:33 | 40.89010 | -23.89363 | 40826 ft | 519 kts | 47° |
| 2026-04-23 20:33 | 40.93392 | -23.81763 | 40816 ft | 519 kts | 47° |
| 2026-04-23 20:34 | 40.97767 | -23.74158 | 40820 ft | 519 kts | 47° |
| 2026-04-23 20:34 | 41.02114 | -23.66580 | 40810 ft | 519 kts | 47° |
| 2026-04-23 20:35 | 41.06479 | -23.58954 | 40812 ft | 519 kts | 47° |
| 2026-04-23 20:35 | 41.10850 | -23.51297 | 40813 ft | 519 kts | 47° |
| 2026-04-23 20:36 | 41.15190 | -23.43676 | 40810 ft | 520 kts | 47° |
| 2026-04-23 20:36 | 41.19546 | -23.36009 | 40826 ft | 520 kts | 48° |
| 2026-04-23 20:37 | 41.23903 | -23.28321 | 40809 ft | 521 kts | 48° |
| 2026-04-23 20:37 | 41.28254 | -23.20623 | 40808 ft | 521 kts | 48° |
| 2026-04-23 20:38 | 41.32610 | -23.12895 | 40805 ft | 521 kts | 48° |
| 2026-04-23 20:38 | 41.36950 | -23.05179 | 40811 ft | 521 kts | 49° |
| 2026-04-23 20:39 | 41.41270 | -22.97478 | 40808 ft | 521 kts | 49° |
| 2026-04-23 20:39 | 41.45604 | -22.89732 | 40807 ft | 522 kts | 49° |
| 2026-04-23 20:40 | 41.49942 | -22.81960 | 40812 ft | 522 kts | 49° |
| 2026-04-23 20:40 | 41.54266 | -22.74195 | 40815 ft | 522 kts | 49° |
| 2026-04-23 20:41 | 41.58606 | -22.66378 | 40807 ft | 522 kts | 49° |
| 2026-04-23 20:41 | 41.62904 | -22.58617 | 40810 ft | 522 kts | 49° |
| 2026-04-23 20:42 | 41.67220 | -22.50805 | 40807 ft | 522 kts | 50° |
| 2026-04-23 20:42 | 41.71532 | -22.42981 | 40809 ft | 522 kts | 50° |
| 2026-04-23 20:43 | 41.75840 | -22.35143 | 40806 ft | 521 kts | 50° |
| 2026-04-23 20:43 | 41.80121 | -22.27333 | 40808 ft | 521 kts | 50° |
| 2026-04-23 20:44 | 41.84415 | -22.19483 | 40805 ft | 521 kts | 50° |
| 2026-04-23 20:44 | 41.88695 | -22.11634 | 40800 ft | 521 kts | 50° |
| 2026-04-23 20:45 | 41.92950 | -22.03811 | 40799 ft | 521 kts | 50° |
| 2026-04-23 20:45 | 41.97226 | -21.95931 | 40817 ft | 521 kts | 50° |
| 2026-04-23 20:46 | 42.01487 | -21.88057 | 40817 ft | 521 kts | 50° |
| 2026-04-23 20:46 | 42.05728 | -21.80201 | 40808 ft | 521 kts | 51° |
| 2026-04-23 20:47 | 42.09985 | -21.72294 | 40804 ft | 520 kts | 51° |
| 2026-04-23 20:47 | 42.14227 | -21.64395 | 40818 ft | 520 kts | 51° |
| 2026-04-23 20:48 | 42.17750 | -21.57818 | 40807 ft | 519 kts | 51° |
| 2026-04-23 20:48 | 42.21971 | -21.49919 | 40810 ft | 519 kts | 51° |
| 2026-04-23 20:49 | 42.26198 | -21.41989 | 40807 ft | 519 kts | 52° |
| 2026-04-23 20:49 | 42.30389 | -21.34104 | 40812 ft | 519 kts | 52° |
| 2026-04-23 20:50 | 42.34587 | -21.26185 | 40815 ft | 519 kts | 52° |
| 2026-04-23 20:50 | 42.38793 | -21.18232 | 40812 ft | 519 kts | 52° |
| 2026-04-23 20:51 | 42.42994 | -21.10267 | 40821 ft | 519 kts | 52° |
| 2026-04-23 20:51 | 42.47159 | -21.02350 | 40817 ft | 519 kts | 52° |
| 2026-04-23 20:52 | 42.51353 | -20.94355 | 40815 ft | 519 kts | 52° |
| 2026-04-23 20:52 | 42.55530 | -20.86371 | 40818 ft | 519 kts | 52° |
| 2026-04-23 20:53 | 42.59678 | -20.78422 | 40823 ft | 519 kts | 53° |
| 2026-04-23 20:53 | 42.63847 | -20.70411 | 40821 ft | 519 kts | 53° |
| 2026-04-23 20:54 | 42.68012 | -20.62388 | 40821 ft | 519 kts | 53° |
| 2026-04-23 20:54 | 42.72159 | -20.54376 | 40824 ft | 519 kts | 53° |
| 2026-04-23 20:55 | 42.76295 | -20.46364 | 40825 ft | 519 kts | 53° |
| 2026-04-23 20:55 | 42.80436 | -20.38322 | 40823 ft | 518 kts | 53° |
| 2026-04-23 20:56 | 42.84577 | -20.30257 | 40827 ft | 518 kts | 53° |
| 2026-04-23 20:56 | 42.88703 | -20.22200 | 40826 ft | 518 kts | 54° |
| 2026-04-23 20:57 | 42.92806 | -20.14167 | 40825 ft | 518 kts | 54° |
| 2026-04-23 20:57 | 42.96922 | -20.06086 | 40833 ft | 518 kts | 54° |
| 2026-04-23 20:58 | 43.00687 | -19.97671 | 40836 ft | 519 kts | 63° |
| 2026-04-23 20:58 | 43.03732 | -19.88744 | 40833 ft | 519 kts | 65° |
| 2026-04-23 20:59 | 43.06640 | -19.79749 | 40844 ft | 519 kts | 66° |
| 2026-04-23 20:59 | 43.09539 | -19.70711 | 40839 ft | 519 kts | 66° |
| 2026-04-23 21:00 | 43.12446 | -19.61666 | 40841 ft | 519 kts | 66° |
| 2026-04-23 21:00 | 43.15364 | -19.52586 | 40844 ft | 519 kts | 66° |
| 2026-04-23 21:01 | 43.18262 | -19.43545 | 40841 ft | 519 kts | 66° |
| 2026-04-23 21:01 | 43.21137 | -19.34542 | 40846 ft | 518 kts | 66° |
| 2026-04-23 21:02 | 43.24032 | -19.25445 | 40850 ft | 518 kts | 66° |
| 2026-04-23 21:02 | 43.26907 | -19.16378 | 40858 ft | 518 kts | 66° |
| 2026-04-23 21:03 | 43.29776 | -19.07299 | 40860 ft | 518 kts | 67° |
| 2026-04-23 21:03 | 43.32637 | -18.98217 | 40856 ft | 518 kts | 67° |
| 2026-04-23 21:04 | 43.35469 | -18.89192 | 40859 ft | 518 kts | 67° |
| 2026-04-23 21:04 | 43.38314 | -18.80097 | 40865 ft | 517 kts | 67° |
| 2026-04-23 21:05 | 43.41153 | -18.70990 | 40867 ft | 518 kts | 67° |
| 2026-04-23 21:05 | 43.43983 | -18.61877 | 40861 ft | 518 kts | 67° |
| 2026-04-23 21:06 | 43.46803 | -18.52769 | 40871 ft | 518 kts | 67° |
| 2026-04-23 21:06 | 43.49617 | -18.43646 | 40863 ft | 517 kts | 68° |
| 2026-04-23 21:07 | 43.52405 | -18.34576 | 40872 ft | 517 kts | 68° |
| 2026-04-23 21:07 | 43.55209 | -18.25420 | 40871 ft | 517 kts | 68° |
| 2026-04-23 21:08 | 43.57995 | -18.16291 | 40873 ft | 517 kts | 68° |
| 2026-04-23 21:08 | 43.60780 | -18.07134 | 40875 ft | 517 kts | 68° |
| 2026-04-23 21:09 | 43.63553 | -17.97984 | 40879 ft | 516 kts | 68° |
| 2026-04-23 21:09 | 43.66315 | -17.88839 | 40880 ft | 516 kts | 68° |
| 2026-04-23 21:10 | 43.69055 | -17.79731 | 40873 ft | 516 kts | 68° |
| 2026-04-23 21:10 | 43.71800 | -17.70578 | 40881 ft | 515 kts | 69° |
| 2026-04-23 21:11 | 43.74526 | -17.61454 | 40890 ft | 515 kts | 69° |
| 2026-04-23 21:11 | 43.77251 | -17.52300 | 40891 ft | 515 kts | 69° |
| 2026-04-23 21:12 | 43.79974 | -17.43120 | 40893 ft | 515 kts | 69° |
| 2026-04-23 21:12 | 43.82685 | -17.33949 | 40895 ft | 514 kts | 69° |
| 2026-04-23 21:13 | 43.85383 | -17.24784 | 40898 ft | 514 kts | 69° |
| 2026-04-23 21:13 | 43.88080 | -17.15595 | 40895 ft | 514 kts | 69° |
| 2026-04-23 21:14 | 43.90767 | -17.06404 | 40905 ft | 513 kts | 69° |
| 2026-04-23 21:14 | 43.93422 | -16.97289 | 40906 ft | 512 kts | 69° |
| 2026-04-23 21:15 | 43.96078 | -16.88139 | 40911 ft | 512 kts | 70° |
| 2026-04-23 21:15 | 43.98738 | -16.78940 | 40907 ft | 511 kts | 70° |
| 2026-04-23 21:16 | 44.01365 | -16.69823 | 40908 ft | 511 kts | 70° |
| 2026-04-23 21:16 | 44.03991 | -16.60674 | 40915 ft | 510 kts | 70° |
| 2026-04-23 21:17 | 44.06622 | -16.51473 | 40914 ft | 510 kts | 70° |
| 2026-04-23 21:17 | 44.09240 | -16.42292 | 40912 ft | 510 kts | 70° |
| 2026-04-23 21:18 | 44.11829 | -16.33170 | 40909 ft | 509 kts | 70° |
| 2026-04-23 21:18 | 44.14424 | -16.23997 | 40921 ft | 509 kts | 70° |
| 2026-04-23 21:19 | 44.17015 | -16.14805 | 40919 ft | 509 kts | 71° |
| 2026-04-23 21:19 | 44.19594 | -16.05617 | 40930 ft | 509 kts | 71° |
| 2026-04-23 21:20 | 44.22171 | -15.96404 | 40934 ft | 508 kts | 71° |
| 2026-04-23 21:20 | 44.24735 | -15.87204 | 40933 ft | 508 kts | 71° |
| 2026-04-23 21:21 | 44.27270 | -15.78076 | 40934 ft | 508 kts | 71° |
| 2026-04-23 21:21 | 44.29812 | -15.68884 | 40949 ft | 506 kts | 71° |
| 2026-04-23 21:22 | 44.32338 | -15.59719 | 40937 ft | 506 kts | 71° |
| 2026-04-23 21:22 | 44.34859 | -15.50534 | 40947 ft | 506 kts | 72° |
| 2026-04-23 21:23 | 44.37357 | -15.41401 | 40950 ft | 506 kts | 72° |
| 2026-04-23 21:23 | 44.39859 | -15.32216 | 40951 ft | 506 kts | 72° |
| 2026-04-23 21:24 | 44.42361 | -15.22999 | 40951 ft | 506 kts | 72° |
| 2026-04-23 21:24 | 44.44845 | -15.13812 | 40940 ft | 505 kts | 72° |
| 2026-04-23 21:25 | 44.47328 | -15.04598 | 40956 ft | 504 kts | 72° |
| 2026-04-23 21:25 | 44.49785 | -14.95439 | 40955 ft | 504 kts | 72° |
| 2026-04-23 21:26 | 44.52239 | -14.86256 | 40964 ft | 504 kts | 72° |
| 2026-04-23 21:26 | 44.54701 | -14.77013 | 40957 ft | 504 kts | 73° |
| 2026-04-23 21:27 | 44.57138 | -14.67826 | 40962 ft | 503 kts | 73° |
| 2026-04-23 21:27 | 44.59570 | -14.58617 | 40968 ft | 503 kts | 73° |
| 2026-04-23 21:28 | 44.61979 | -14.49464 | 40965 ft | 503 kts | 73° |
| 2026-04-23 21:28 | 44.64396 | -14.40245 | 40988 ft | 502 kts | 73° |
| 2026-04-23 21:29 | 44.66804 | -14.31026 | 40977 ft | 502 kts | 73° |
| 2026-04-23 21:29 | 44.69188 | -14.21863 | 40976 ft | 501 kts | 73° |
| 2026-04-23 21:30 | 44.71574 | -14.12656 | 40960 ft | 501 kts | 73° |
| 2026-04-23 21:30 | 44.73951 | -14.03446 | 40984 ft | 500 kts | 74° |
| 2026-04-23 21:31 | 44.76324 | -13.94214 | 40982 ft | 500 kts | 74° |
| 2026-04-23 21:31 | 44.78668 | -13.85059 | 40988 ft | 500 kts | 74° |
| 2026-04-23 21:32 | 44.81023 | -13.75829 | 40983 ft | 500 kts | 74° |
| 2026-04-23 21:32 | 44.83360 | -13.66630 | 40990 ft | 499 kts | 74° |
| 2026-04-23 21:33 | 44.85695 | -13.57402 | 40992 ft | 499 kts | 74° |
| 2026-04-23 21:33 | 44.88018 | -13.48185 | 40999 ft | 499 kts | 74° |
| 2026-04-23 21:34 | 44.90319 | -13.39022 | 41000 ft | 498 kts | 75° |
| 2026-04-23 21:34 | 44.92620 | -13.29819 | 41002 ft | 496 kts | 75° |
| 2026-04-23 21:35 | 44.94910 | -13.20622 | 41004 ft | 496 kts | 75° |
| 2026-04-23 21:35 | 44.97198 | -13.11397 | 41004 ft | 496 kts | 75° |
| 2026-04-23 21:36 | 45.00601 | -12.97622 | 41010 ft | 496 kts | 75° |
| 2026-04-23 21:37 | 45.02949 | -12.88443 | 41012 ft | 497 kts | 74° |
| 2026-04-23 21:37 | 45.04932 | -12.80799 | 41015 ft | 497 kts | 74° |
| 2026-04-23 21:38 | 45.07294 | -12.71623 | 41001 ft | 496 kts | 75° |
| 2026-04-23 21:38 | 45.10019 | -12.60936 | 41017 ft | 496 kts | 75° |
| 2026-04-23 21:39 | 45.11960 | -12.53277 | 41020 ft | 496 kts | 75° |
| 2026-04-23 21:39 | 45.14283 | -12.44078 | 41023 ft | 496 kts | 75° |
| 2026-04-23 21:40 | 45.16604 | -12.34852 | 41019 ft | 496 kts | 75° |
| 2026-04-23 21:40 | 45.18911 | -12.25645 | 41024 ft | 495 kts | 75° |
| 2026-04-23 21:41 | 45.21211 | -12.16428 | 41029 ft | 495 kts | 75° |
| 2026-04-23 21:41 | 45.23489 | -12.07265 | 41029 ft | 495 kts | 75° |
| 2026-04-23 21:42 | 45.25772 | -11.98043 | 41028 ft | 495 kts | 75° |
| 2026-04-23 21:42 | 45.28046 | -11.88822 | 41029 ft | 495 kts | 75° |
| 2026-04-23 21:43 | 45.30318 | -11.79572 | 41028 ft | 495 kts | 75° |
| 2026-04-23 21:43 | 45.32579 | -11.70327 | 41029 ft | 495 kts | 76° |
| 2026-04-23 21:44 | 45.34837 | -11.61056 | 41031 ft | 495 kts | 76° |
| 2026-04-23 21:44 | 45.37061 | -11.51895 | 41035 ft | 494 kts | 76° |
| 2026-04-23 21:45 | 45.39297 | -11.42640 | 41034 ft | 494 kts | 76° |
| 2026-04-23 21:45 | 45.41524 | -11.33381 | 41034 ft | 494 kts | 76° |
| 2026-04-23 21:46 | 45.43741 | -11.24129 | 41040 ft | 493 kts | 76° |
| 2026-04-23 21:46 | 45.45949 | -11.14873 | 41039 ft | 492 kts | 76° |
| 2026-04-23 21:47 | 45.48132 | -11.05686 | 41030 ft | 492 kts | 76° |
| 2026-04-23 21:47 | 45.50321 | -10.96433 | 41040 ft | 492 kts | 76° |
| 2026-04-23 21:48 | 45.52510 | -10.87145 | 41038 ft | 493 kts | 76° |
| 2026-04-23 21:48 | 45.54682 | -10.77887 | 41040 ft | 492 kts | 76° |
| 2026-04-23 21:49 | 45.56846 | -10.68625 | 41044 ft | 492 kts | 76° |
| 2026-04-23 21:49 | 45.58995 | -10.59390 | 41043 ft | 492 kts | 76° |
| 2026-04-23 21:50 | 45.61150 | -10.50086 | 41045 ft | 493 kts | 76° |
| 2026-04-23 21:50 | 45.63296 | -10.40784 | 41045 ft | 493 kts | 76° |
| 2026-04-23 21:51 | 45.65436 | -10.31465 | 41045 ft | 493 kts | 76° |
| 2026-04-23 21:51 | 45.67571 | -10.22134 | 41016 ft | 493 kts | 76° |
| 2026-04-23 21:52 | 45.69697 | -10.12796 | 41041 ft | 494 kts | 76° |
| 2026-04-23 21:52 | 45.71808 | -10.03483 | 41046 ft | 494 kts | 77° |
| 2026-04-23 21:53 | 45.73919 | -9.94135 | 41050 ft | 494 kts | 77° |
| 2026-04-23 21:53 | 45.76021 | -9.84784 | 41021 ft | 493 kts | 77° |
| 2026-04-23 21:54 | 45.78117 | -9.75416 | 41051 ft | 494 kts | 77° |
| 2026-04-23 21:54 | 45.80206 | -9.66038 | 41046 ft | 494 kts | 77° |
| 2026-04-23 21:55 | 45.82295 | -9.56619 | 41049 ft | 494 kts | 77° |
| 2026-04-23 21:55 | 45.84358 | -9.47279 | 41028 ft | 494 kts | 77° |
| 2026-04-23 21:56 | 45.86426 | -9.37870 | 41055 ft | 495 kts | 77° |
| 2026-04-23 21:56 | 45.88488 | -9.28448 | 41056 ft | 495 kts | 77° |
| 2026-04-23 21:57 | 45.90549 | -9.18990 | 41055 ft | 495 kts | 77° |
| 2026-04-23 21:57 | 45.92599 | -9.09539 | 41039 ft | 495 kts | 77° |
| 2026-04-23 21:58 | 45.94627 | -9.00144 | 41056 ft | 496 kts | 77° |
| 2026-04-23 21:58 | 45.96666 | -8.90658 | 41058 ft | 496 kts | 77° |
| 2026-04-23 21:59 | 45.98696 | -8.81170 | 41058 ft | 496 kts | 77° |
| 2026-04-23 21:59 | 45.99948 | -8.71533 | 41049 ft | 486 kts | 91° |
| 2026-04-23 22:00 | 46.00116 | -8.56932 | 41061 ft | 486 kts | 94° |
| 2026-04-23 22:00 | 46.00088 | -8.47271 | 41061 ft | 486 kts | 94° |
| 2026-04-23 22:01 | 46.00070 | -8.37566 | 41059 ft | 486 kts | 94° |
| 2026-04-23 22:01 | 46.00061 | -8.27824 | 41059 ft | 486 kts | 94° |
| 2026-04-23 22:02 | 46.00050 | -8.18127 | 41059 ft | 486 kts | 94° |
| 2026-04-23 22:02 | 46.00031 | -8.08392 | 41058 ft | 486 kts | 94° |
| 2026-04-23 22:03 | 46.00605 | -7.98724 | 41059 ft | 493 kts | 81° |
| 2026-04-23 22:03 | 46.02669 | -7.89257 | 41056 ft | 496 kts | 73° |
| 2026-04-23 22:04 | 46.05045 | -7.79888 | 41060 ft | 496 kts | 73° |
| 2026-04-23 22:04 | 46.07427 | -7.70623 | 41062 ft | 496 kts | 73° |
| 2026-04-23 22:05 | 46.09793 | -7.61284 | 41061 ft | 496 kts | 73° |
| 2026-04-23 22:05 | 46.12132 | -7.51937 | 41056 ft | 496 kts | 73° |
| 2026-04-23 22:06 | 46.14464 | -7.42564 | 41060 ft | 495 kts | 73° |
| 2026-04-23 22:06 | 46.16781 | -7.33214 | 41069 ft | 495 kts | 73° |
| 2026-04-23 22:07 | 46.19093 | -7.23849 | 41068 ft | 495 kts | 73° |
| 2026-04-23 22:07 | 46.21382 | -7.14539 | 41059 ft | 495 kts | 73° |
| 2026-04-23 22:08 | 46.23672 | -7.05186 | 41066 ft | 494 kts | 73° |
| 2026-04-23 22:08 | 46.25959 | -6.95810 | 41068 ft | 494 kts | 73° |
| 2026-04-23 22:09 | 46.28236 | -6.86431 | 41068 ft | 494 kts | 73° |
| 2026-04-23 22:09 | 46.30504 | -6.77050 | 41071 ft | 494 kts | 73° |
| 2026-04-23 22:10 | 46.32766 | -6.67657 | 41070 ft | 494 kts | 73° |
| 2026-04-23 22:10 | 46.35018 | -6.58265 | 41067 ft | 494 kts | 73° |
| 2026-04-23 22:11 | 46.37247 | -6.48927 | 41070 ft | 494 kts | 73° |
| 2026-04-23 22:11 | 46.39485 | -6.39512 | 41069 ft | 493 kts | 73° |
| 2026-04-23 22:12 | 46.41706 | -6.30135 | 41070 ft | 491 kts | 73° |
| 2026-04-23 22:12 | 46.43901 | -6.20824 | 41070 ft | 490 kts | 73° |
| 2026-04-23 22:13 | 46.46097 | -6.11467 | 41070 ft | 490 kts | 73° |
| 2026-04-23 22:13 | 46.48289 | -6.02088 | 41062 ft | 490 kts | 73° |
| 2026-04-23 22:14 | 46.50472 | -5.92704 | 41075 ft | 490 kts | 73° |
| 2026-04-23 22:14 | 46.52649 | -5.83312 | 41075 ft | 489 kts | 73° |
| 2026-04-23 22:15 | 46.54798 | -5.73992 | 41072 ft | 489 kts | 74° |
| 2026-04-23 22:15 | 46.56954 | -5.64607 | 41057 ft | 489 kts | 73° |
| 2026-04-23 22:16 | 46.59106 | -5.55200 | 41069 ft | 489 kts | 73° |
| 2026-04-23 22:16 | 46.61230 | -5.45871 | 41079 ft | 488 kts | 73° |
| 2026-04-23 22:17 | 46.63357 | -5.36488 | 41077 ft | 488 kts | 74° |
| 2026-04-23 22:17 | 46.65478 | -5.27095 | 41072 ft | 488 kts | 74° |
| 2026-04-23 22:18 | 46.67600 | -5.17649 | 41074 ft | 489 kts | 73° |
| 2026-04-23 22:18 | 46.69710 | -5.08219 | 41074 ft | 489 kts | 73° |
| 2026-04-23 22:19 | 46.71800 | -4.98837 | 41071 ft | 489 kts | 74° |
| 2026-04-23 22:19 | 46.73900 | -4.89368 | 41080 ft | 489 kts | 74° |
| 2026-04-23 22:20 | 46.75987 | -4.79909 | 41081 ft | 490 kts | 73° |
| 2026-04-23 22:20 | 46.78067 | -4.70446 | 41083 ft | 491 kts | 73° |
| 2026-04-23 22:21 | 46.80129 | -4.61017 | 41083 ft | 491 kts | 74° |
| 2026-04-23 22:21 | 46.82199 | -4.51507 | 41083 ft | 491 kts | 74° |
| 2026-04-23 22:22 | 46.84261 | -4.41998 | 41082 ft | 490 kts | 74° |
| 2026-04-23 22:22 | 46.86313 | -4.32489 | 41085 ft | 490 kts | 74° |
| 2026-04-23 22:23 | 46.88345 | -4.23032 | 41085 ft | 490 kts | 74° |
| 2026-04-23 22:23 | 46.90390 | -4.13460 | 41086 ft | 490 kts | 74° |
| 2026-04-23 22:24 | 46.92406 | -4.03993 | 41092 ft | 490 kts | 74° |
| 2026-04-23 22:24 | 46.94426 | -3.94461 | 41093 ft | 490 kts | 74° |
| 2026-04-23 22:25 | 46.96440 | -3.84903 | 41096 ft | 490 kts | 74° |
| 2026-04-23 22:25 | 46.98429 | -3.75427 | 41096 ft | 490 kts | 74° |
| 2026-04-23 22:26 | 47.00424 | -3.65881 | 41097 ft | 490 kts | 74° |
| 2026-04-23 22:26 | 47.02410 | -3.56324 | 41104 ft | 490 kts | 74° |
| 2026-04-23 22:27 | 47.04384 | -3.46774 | 41104 ft | 490 kts | 74° |
| 2026-04-23 22:27 | 47.06356 | -3.37195 | 41108 ft | 490 kts | 74° |
| 2026-04-23 22:28 | 47.07987 | -3.29244 | 41107 ft | 489 kts | 74° |
| 2026-04-23 22:28 | 47.09949 | -3.19631 | 41115 ft | 491 kts | 74° |
| 2026-04-23 22:29 | 47.11901 | -3.10024 | 41116 ft | 491 kts | 74° |
| 2026-04-23 22:29 | 47.13837 | -3.00446 | 41116 ft | 491 kts | 74° |
| 2026-04-23 22:30 | 47.15773 | -2.90816 | 41119 ft | 491 kts | 74° |
| 2026-04-23 22:30 | 47.17702 | -2.81150 | 41120 ft | 492 kts | 73° |
| 2026-04-23 22:31 | 47.19613 | -2.71536 | 41124 ft | 493 kts | 73° |
| 2026-04-23 22:31 | 47.21526 | -2.61870 | 41128 ft | 493 kts | 73° |
| 2026-04-23 22:32 | 47.23434 | -2.52174 | 41136 ft | 493 kts | 74° |
| 2026-04-23 22:32 | 47.25337 | -2.42460 | 41143 ft | 493 kts | 73° |
| 2026-04-23 22:33 | 47.27228 | -2.32757 | 41153 ft | 493 kts | 73° |
| 2026-04-23 22:33 | 47.29094 | -2.23138 | 41157 ft | 492 kts | 73° |
| 2026-04-23 22:34 | 47.30968 | -2.13424 | 41157 ft | 492 kts | 73° |
| 2026-04-23 22:34 | 47.32831 | -2.03719 | 41158 ft | 492 kts | 73° |
| 2026-04-23 22:35 | 47.34686 | -1.94008 | 41150 ft | 490 kts | 73° |
| 2026-04-23 22:35 | 47.36488 | -1.84304 | 41128 ft | 490 kts | 75° |
| 2026-04-23 22:36 | 47.38193 | -1.74627 | 41135 ft | 490 kts | 75° |
| 2026-04-23 22:36 | 47.39896 | -1.64912 | 41138 ft | 490 kts | 75° |
| 2026-04-23 22:37 | 47.41614 | -1.55147 | 41135 ft | 490 kts | 75° |
| 2026-04-23 22:37 | 47.43318 | -1.45443 | 41142 ft | 491 kts | 75° |
| 2026-04-23 22:38 | 47.45027 | -1.35664 | 41145 ft | 491 kts | 75° |
| 2026-04-23 22:38 | 47.46726 | -1.25886 | 41154 ft | 490 kts | 75° |
| 2026-04-23 22:39 | 47.48406 | -1.16160 | 41159 ft | 491 kts | 75° |
| 2026-04-23 22:39 | 47.50087 | -1.06376 | 41159 ft | 491 kts | 75° |
| 2026-04-23 22:40 | 47.51762 | -0.96574 | 41162 ft | 491 kts | 75° |
| 2026-04-23 22:41 | 47.53412 | -0.81673 | 41171 ft | 491 kts | 91° |
| 2026-04-23 22:41 | 47.53084 | -0.71604 | 41172 ft | 491 kts | 94° |
| 2026-04-23 22:42 | 47.52563 | -0.61503 | 41180 ft | 491 kts | 94° |
| 2026-04-23 22:42 | 47.52021 | -0.51426 | 41182 ft | 491 kts | 94° |
| 2026-04-23 22:43 | 47.51491 | -0.41341 | 41086 ft | 490 kts | 94° |
| 2026-04-23 22:43 | 47.51234 | -0.36418 | 40752 ft | 485 kts | 94° |
| 2026-04-23 22:43 | 47.50974 | -0.31438 | 40115 ft | 486 kts | 94° |
| 2026-04-23 22:43 | 47.50711 | -0.26426 | 39381 ft | 489 kts | 94° |
| 2026-04-23 22:44 | 47.50441 | -0.21340 | 38709 ft | 490 kts | 94° |
| 2026-04-23 22:44 | 47.50177 | -0.16394 | 38014 ft | 489 kts | 93° |
| 2026-04-23 22:44 | 47.49905 | -0.11360 | 37352 ft | 488 kts | 93° |
| 2026-04-23 22:44 | 47.49632 | -0.06358 | 36691 ft | 488 kts | 93° |
| 2026-04-23 22:45 | 47.49358 | -0.01364 | 36041 ft | 487 kts | 93° |
| 2026-04-23 22:45 | 47.49081 | 0.03636 | 35327 ft | 489 kts | 93° |
| 2026-04-23 22:45 | 47.48800 | 0.08670 | 34594 ft | 491 kts | 92° |
| 2026-04-23 22:45 | 47.48517 | 0.13717 | 33737 ft | 494 kts | 92° |
| 2026-04-23 22:46 | 47.48234 | 0.18730 | 32902 ft | 496 kts | 92° |
| 2026-04-23 22:46 | 47.47944 | 0.23824 | 32075 ft | 497 kts | 92° |
| 2026-04-23 22:46 | 47.47742 | 0.28901 | 31466 ft | 492 kts | 86° |
| 2026-04-23 22:46 | 47.48156 | 0.33879 | 30905 ft | 482 kts | 73° |
| 2026-04-23 22:47 | 47.49333 | 0.38463 | 30317 ft | 473 kts | 58° |
| 2026-04-23 22:47 | 47.51177 | 0.42420 | 29695 ft | 464 kts | 47° |
| 2026-04-23 22:47 | 47.53238 | 0.46063 | 29110 ft | 458 kts | 46° |
| 2026-04-23 22:47 | 47.55279 | 0.49586 | 28538 ft | 453 kts | 46° |
| 2026-04-23 22:48 | 47.57320 | 0.53107 | 27989 ft | 448 kts | 46° |
| 2026-04-23 22:48 | 47.59340 | 0.56604 | 27440 ft | 444 kts | 46° |
| 2026-04-23 22:48 | 47.61340 | 0.60072 | 26900 ft | 440 kts | 46° |
| 2026-04-23 22:48 | 47.63319 | 0.63512 | 26328 ft | 435 kts | 46° |
| 2026-04-23 22:49 | 47.65278 | 0.66921 | 25795 ft | 431 kts | 46° |